<?xml version="1.0" encoding="UTF-8" standalone="no" ?>
<gpx xmlns="http://www.topografix.com/GPX/1/1" xmlns:xsi="http://www.w3.org/2001/XMLSchema-instance" xsi:schemaLocation="http://www.topografix.com/GPX/1/1 http://www.topografix.com/GPX/1/1/gpx.xsd" version="1.1" creator="VisuGPX - https://www.visugpx.com">
  <metadata>
    <name>01-Arles / St Gilles du Gard</name>
    <desc><![CDATA[File with points/tracks from Locus Map Classic/3.70.9]]></desc>
  </metadata>
  <trk>
    <name><![CDATA[Arles/St Gilles]]></name>
    <extensions>
      <line xmlns="http://www.topografix.com/GPX/gpx_style/0/2">
        <color>0000D7</color>
        <opacity>0.59</opacity>
        <width>5.0</width>
      </line>
    </extensions>
    <trkseg>
      <trkpt lat="43.68101" lon="4.63069">
        <ele>5.65</ele>
        <time>2024-04-20T06:31:54.848Z</time>
      </trkpt>
      <trkpt lat="43.68089" lon="4.63043">
        <ele>4.52</ele>
        <time>2024-04-20T06:35:07.102Z</time>
      </trkpt>
      <trkpt lat="43.68069" lon="4.63027">
        <ele>4.41</ele>
        <time>2024-04-20T06:35:28.303Z</time>
      </trkpt>
      <trkpt lat="43.68051" lon="4.63006">
        <ele>4.91</ele>
        <time>2024-04-20T06:35:48.842Z</time>
      </trkpt>
      <trkpt lat="43.68032" lon="4.63024">
        <ele>6.29</ele>
        <time>2024-04-20T06:36:11.743Z</time>
      </trkpt>
      <trkpt lat="43.68019" lon="4.6305">
        <ele>6.81</ele>
        <time>2024-04-20T06:36:30.582Z</time>
      </trkpt>
      <trkpt lat="43.68007" lon="4.63076">
        <ele>6.92</ele>
        <time>2024-04-20T06:36:50.265Z</time>
      </trkpt>
      <trkpt lat="43.68" lon="4.63106">
        <ele>6.94</ele>
        <time>2024-04-20T06:37:06.606Z</time>
      </trkpt>
      <trkpt lat="43.67983" lon="4.63127">
        <ele>7.24</ele>
        <time>2024-04-20T06:37:28.105Z</time>
      </trkpt>
      <trkpt lat="43.67962" lon="4.63113">
        <ele>7.57</ele>
        <time>2024-04-20T06:37:43.847Z</time>
      </trkpt>
      <trkpt lat="43.6794" lon="4.63109">
        <ele>8.12</ele>
        <time>2024-04-20T06:38:02.505Z</time>
      </trkpt>
      <trkpt lat="43.67918" lon="4.63118">
        <ele>9.03</ele>
        <time>2024-04-20T06:38:21.084Z</time>
      </trkpt>
      <trkpt lat="43.67896" lon="4.63126">
        <ele>10.52</ele>
        <time>2024-04-20T06:38:41.805Z</time>
      </trkpt>
      <trkpt lat="43.67874" lon="4.63135">
        <ele>12.21</ele>
        <time>2024-04-20T06:39:06.300Z</time>
      </trkpt>
      <trkpt lat="43.67853" lon="4.63147">
        <ele>13.47</ele>
        <time>2024-04-20T06:39:27.847Z</time>
      </trkpt>
      <trkpt lat="43.6783" lon="4.63151">
        <ele>14.59</ele>
        <time>2024-04-20T06:39:51.740Z</time>
      </trkpt>
      <trkpt lat="43.67808" lon="4.63155">
        <ele>15.3</ele>
        <time>2024-04-20T06:40:17.781Z</time>
      </trkpt>
      <trkpt lat="43.67786" lon="4.63168">
        <ele>16.28</ele>
        <time>2024-04-20T06:40:39.853Z</time>
      </trkpt>
      <trkpt lat="43.67765" lon="4.63182">
        <ele>18.15</ele>
        <time>2024-04-20T06:41:00.666Z</time>
      </trkpt>
      <trkpt lat="43.67743" lon="4.63178">
        <ele>19.26</ele>
        <time>2024-04-20T06:41:21.819Z</time>
      </trkpt>
      <trkpt lat="43.67723" lon="4.63164">
        <ele>19.58</ele>
        <time>2024-04-20T06:42:02.760Z</time>
      </trkpt>
      <trkpt lat="43.67708" lon="4.63139">
        <ele>19.68</ele>
        <time>2024-04-20T06:42:24.868Z</time>
      </trkpt>
      <trkpt lat="43.67702" lon="4.63108">
        <ele>19.9</ele>
        <time>2024-04-20T06:42:43.280Z</time>
      </trkpt>
      <trkpt lat="43.67707" lon="4.63078">
        <ele>19.15</ele>
        <time>2024-04-20T06:43:02.743Z</time>
      </trkpt>
      <trkpt lat="43.67707" lon="4.63046">
        <ele>20.74</ele>
        <time>2024-04-20T06:43:24.847Z</time>
      </trkpt>
      <trkpt lat="43.67704" lon="4.63015">
        <ele>22.53</ele>
        <time>2024-04-20T06:44:08.643Z</time>
      </trkpt>
      <trkpt lat="43.67708" lon="4.62984">
        <ele>23.34</ele>
        <time>2024-04-20T06:44:32.196Z</time>
      </trkpt>
      <trkpt lat="43.67705" lon="4.62952">
        <ele>23.36</ele>
        <time>2024-04-20T06:44:55.242Z</time>
      </trkpt>
      <trkpt lat="43.67704" lon="4.62921">
        <ele>22.8</ele>
        <time>2024-04-20T06:45:15.164Z</time>
      </trkpt>
      <trkpt lat="43.67705" lon="4.62889">
        <ele>21.24</ele>
        <time>2024-04-20T06:45:35.166Z</time>
      </trkpt>
      <trkpt lat="43.67707" lon="4.62858">
        <ele>18.95</ele>
        <time>2024-04-20T06:45:56.279Z</time>
      </trkpt>
      <trkpt lat="43.67703" lon="4.62827">
        <ele>17.01</ele>
        <time>2024-04-20T06:46:13.005Z</time>
      </trkpt>
      <trkpt lat="43.67708" lon="4.62796">
        <ele>15.04</ele>
        <time>2024-04-20T06:46:34.139Z</time>
      </trkpt>
      <trkpt lat="43.67686" lon="4.6279">
        <ele>15.27</ele>
        <time>2024-04-20T06:47:00.538Z</time>
      </trkpt>
      <trkpt lat="43.67668" lon="4.6277">
        <ele>14.67</ele>
        <time>2024-04-20T06:48:11.845Z</time>
      </trkpt>
      <trkpt lat="43.67649" lon="4.62752">
        <ele>14.42</ele>
        <time>2024-04-20T06:50:32.846Z</time>
      </trkpt>
      <trkpt lat="43.67627" lon="4.62747">
        <ele>14.82</ele>
        <time>2024-04-20T06:50:49.343Z</time>
      </trkpt>
      <trkpt lat="43.67618" lon="4.62718">
        <ele>14.34</ele>
        <time>2024-04-20T06:51:14.741Z</time>
      </trkpt>
      <trkpt lat="43.67625" lon="4.62689">
        <ele>13.87</ele>
        <time>2024-04-20T06:51:39.601Z</time>
      </trkpt>
      <trkpt lat="43.67632" lon="4.62659">
        <ele>13.26</ele>
        <time>2024-04-20T06:52:00.706Z</time>
      </trkpt>
      <trkpt lat="43.67641" lon="4.6263">
        <ele>12.23</ele>
        <time>2024-04-20T06:52:36.823Z</time>
      </trkpt>
      <trkpt lat="43.67648" lon="4.626">
        <ele>11.11</ele>
        <time>2024-04-20T06:54:36.839Z</time>
      </trkpt>
      <trkpt lat="43.6766" lon="4.62574">
        <ele>10.58</ele>
        <time>2024-04-20T06:55:03.845Z</time>
      </trkpt>
      <trkpt lat="43.67676" lon="4.62551">
        <ele>10.3</ele>
        <time>2024-04-20T06:55:24.098Z</time>
      </trkpt>
      <trkpt lat="43.67688" lon="4.62525">
        <ele>9.78</ele>
        <time>2024-04-20T06:55:41.844Z</time>
      </trkpt>
      <trkpt lat="43.67701" lon="4.62498">
        <ele>9.2</ele>
        <time>2024-04-20T06:56:00.659Z</time>
      </trkpt>
      <trkpt lat="43.67689" lon="4.62472">
        <ele>8.43</ele>
        <time>2024-04-20T06:56:48.842Z</time>
      </trkpt>
      <trkpt lat="43.67711" lon="4.62477">
        <ele>8.74</ele>
        <time>2024-04-20T07:00:04.846Z</time>
      </trkpt>
      <trkpt lat="43.67714" lon="4.62445">
        <ele>8.1</ele>
        <time>2024-04-20T07:02:31.394Z</time>
      </trkpt>
      <trkpt lat="43.67699" lon="4.62421">
        <ele>7.5</ele>
        <time>2024-04-20T07:02:49.156Z</time>
      </trkpt>
      <trkpt lat="43.67718" lon="4.62439">
        <ele>8.06</ele>
        <time>2024-04-20T07:09:33.439Z</time>
      </trkpt>
      <trkpt lat="43.67738" lon="4.62421">
        <ele>8.05</ele>
        <time>2024-04-20T07:09:52.738Z</time>
      </trkpt>
      <trkpt lat="43.6776" lon="4.62415">
        <ele>7.88</ele>
        <time>2024-04-20T07:10:52.525Z</time>
      </trkpt>
      <trkpt lat="43.67782" lon="4.62408">
        <ele>7.32</ele>
        <time>2024-04-20T07:11:11.768Z</time>
      </trkpt>
      <trkpt lat="43.67803" lon="4.62393">
        <ele>6.14</ele>
        <time>2024-04-20T07:11:34.277Z</time>
      </trkpt>
      <trkpt lat="43.67822" lon="4.62374">
        <ele>4.36</ele>
        <time>2024-04-20T07:11:52.844Z</time>
      </trkpt>
      <trkpt lat="43.6784" lon="4.62357">
        <ele>2.72</ele>
        <time>2024-04-20T07:12:12.449Z</time>
      </trkpt>
      <trkpt lat="43.67859" lon="4.62339">
        <ele>1.6</ele>
        <time>2024-04-20T07:12:30.768Z</time>
      </trkpt>
      <trkpt lat="43.67878" lon="4.62322">
        <ele>1.24</ele>
        <time>2024-04-20T07:12:49.614Z</time>
      </trkpt>
      <trkpt lat="43.67897" lon="4.62305">
        <ele>1.34</ele>
        <time>2024-04-20T07:13:08.153Z</time>
      </trkpt>
      <trkpt lat="43.67916" lon="4.62287">
        <ele>1.7</ele>
        <time>2024-04-20T07:13:26.844Z</time>
      </trkpt>
      <trkpt lat="43.67935" lon="4.62268">
        <ele>2.62</ele>
        <time>2024-04-20T07:13:45.395Z</time>
      </trkpt>
      <trkpt lat="43.67954" lon="4.62252">
        <ele>4.11</ele>
        <time>2024-04-20T07:14:02.589Z</time>
      </trkpt>
      <trkpt lat="43.67946" lon="4.6222">
        <ele>4.48</ele>
        <time>2024-04-20T07:14:34.273Z</time>
      </trkpt>
      <trkpt lat="43.67933" lon="4.62193">
        <ele>5.28</ele>
        <time>2024-04-20T07:14:53.692Z</time>
      </trkpt>
      <trkpt lat="43.67921" lon="4.62167">
        <ele>6.11</ele>
        <time>2024-04-20T07:15:16.533Z</time>
      </trkpt>
      <trkpt lat="43.67909" lon="4.6214">
        <ele>6.33</ele>
        <time>2024-04-20T07:15:36.312Z</time>
      </trkpt>
      <trkpt lat="43.67901" lon="4.62111">
        <ele>6.12</ele>
        <time>2024-04-20T07:15:59.654Z</time>
      </trkpt>
      <trkpt lat="43.67892" lon="4.62082">
        <ele>5.65</ele>
        <time>2024-04-20T07:16:22.670Z</time>
      </trkpt>
      <trkpt lat="43.67879" lon="4.62056">
        <ele>5.17</ele>
        <time>2024-04-20T07:16:43.791Z</time>
      </trkpt>
      <trkpt lat="43.67866" lon="4.6203">
        <ele>5.42</ele>
        <time>2024-04-20T07:17:03.389Z</time>
      </trkpt>
      <trkpt lat="43.67854" lon="4.62003">
        <ele>6.19</ele>
        <time>2024-04-20T07:17:23.772Z</time>
      </trkpt>
      <trkpt lat="43.67837" lon="4.61983">
        <ele>6.47</ele>
        <time>2024-04-20T07:17:43.751Z</time>
      </trkpt>
      <trkpt lat="43.67827" lon="4.61954">
        <ele>6.51</ele>
        <time>2024-04-20T07:18:02.529Z</time>
      </trkpt>
      <trkpt lat="43.67814" lon="4.61929">
        <ele>5.91</ele>
        <time>2024-04-20T07:18:19.844Z</time>
      </trkpt>
      <trkpt lat="43.67801" lon="4.61904">
        <ele>5.47</ele>
        <time>2024-04-20T07:18:37.851Z</time>
      </trkpt>
      <trkpt lat="43.67786" lon="4.6188">
        <ele>5.32</ele>
        <time>2024-04-20T07:19:04.113Z</time>
      </trkpt>
      <trkpt lat="43.67771" lon="4.61857">
        <ele>5.71</ele>
        <time>2024-04-20T07:19:22.690Z</time>
      </trkpt>
      <trkpt lat="43.67757" lon="4.61832">
        <ele>6.31</ele>
        <time>2024-04-20T07:19:43.648Z</time>
      </trkpt>
      <trkpt lat="43.67743" lon="4.61807">
        <ele>6.56</ele>
        <time>2024-04-20T07:20:02.908Z</time>
      </trkpt>
      <trkpt lat="43.67729" lon="4.61784">
        <ele>6.16</ele>
        <time>2024-04-20T07:20:21.610Z</time>
      </trkpt>
      <trkpt lat="43.67714" lon="4.6176">
        <ele>5.27</ele>
        <time>2024-04-20T07:20:40.235Z</time>
      </trkpt>
      <trkpt lat="43.67699" lon="4.61736">
        <ele>4.61</ele>
        <time>2024-04-20T07:20:59.235Z</time>
      </trkpt>
      <trkpt lat="43.67684" lon="4.61712">
        <ele>4.92</ele>
        <time>2024-04-20T07:21:17.687Z</time>
      </trkpt>
      <trkpt lat="43.67693" lon="4.61684">
        <ele>6.96</ele>
        <time>2024-04-20T07:21:44.022Z</time>
      </trkpt>
      <trkpt lat="43.67713" lon="4.61669">
        <ele>7.8</ele>
        <time>2024-04-20T07:22:05.196Z</time>
      </trkpt>
      <trkpt lat="43.67723" lon="4.6164">
        <ele>8.52</ele>
        <time>2024-04-20T07:22:25.694Z</time>
      </trkpt>
      <trkpt lat="43.67717" lon="4.6161">
        <ele>9.26</ele>
        <time>2024-04-20T07:22:44.914Z</time>
      </trkpt>
      <trkpt lat="43.677" lon="4.6159">
        <ele>9.22</ele>
        <time>2024-04-20T07:23:04.175Z</time>
      </trkpt>
      <trkpt lat="43.67687" lon="4.61563">
        <ele>8.31</ele>
        <time>2024-04-20T07:24:09.772Z</time>
      </trkpt>
      <trkpt lat="43.67675" lon="4.61537">
        <ele>6.17</ele>
        <time>2024-04-20T07:24:31.354Z</time>
      </trkpt>
      <trkpt lat="43.67658" lon="4.61515">
        <ele>4.22</ele>
        <time>2024-04-20T07:24:54.688Z</time>
      </trkpt>
      <trkpt lat="43.67644" lon="4.6149">
        <ele>3.87</ele>
        <time>2024-04-20T07:25:14.955Z</time>
      </trkpt>
      <trkpt lat="43.67631" lon="4.61464">
        <ele>4.8</ele>
        <time>2024-04-20T07:25:32.842Z</time>
      </trkpt>
      <trkpt lat="43.67619" lon="4.61437">
        <ele>5.89</ele>
        <time>2024-04-20T07:25:50.831Z</time>
      </trkpt>
      <trkpt lat="43.67607" lon="4.61411">
        <ele>6.41</ele>
        <time>2024-04-20T07:26:06.487Z</time>
      </trkpt>
      <trkpt lat="43.67596" lon="4.61384">
        <ele>6.18</ele>
        <time>2024-04-20T07:26:22.395Z</time>
      </trkpt>
      <trkpt lat="43.67582" lon="4.61358">
        <ele>5.61</ele>
        <time>2024-04-20T07:26:38.792Z</time>
      </trkpt>
      <trkpt lat="43.67571" lon="4.61331">
        <ele>5.14</ele>
        <time>2024-04-20T07:26:55.843Z</time>
      </trkpt>
      <trkpt lat="43.67559" lon="4.61304">
        <ele>4.85</ele>
        <time>2024-04-20T07:27:12.312Z</time>
      </trkpt>
      <trkpt lat="43.67547" lon="4.61278">
        <ele>4.38</ele>
        <time>2024-04-20T07:27:30.112Z</time>
      </trkpt>
      <trkpt lat="43.67533" lon="4.61252">
        <ele>3.89</ele>
        <time>2024-04-20T07:27:46.934Z</time>
      </trkpt>
      <trkpt lat="43.67522" lon="4.61224">
        <ele>3.71</ele>
        <time>2024-04-20T07:28:04.588Z</time>
      </trkpt>
      <trkpt lat="43.67511" lon="4.61196">
        <ele>3.85</ele>
        <time>2024-04-20T07:28:23.843Z</time>
      </trkpt>
      <trkpt lat="43.67501" lon="4.61168">
        <ele>4</ele>
        <time>2024-04-20T07:28:40.842Z</time>
      </trkpt>
      <trkpt lat="43.67489" lon="4.61141">
        <ele>4.07</ele>
        <time>2024-04-20T07:28:58.513Z</time>
      </trkpt>
      <trkpt lat="43.67478" lon="4.61114">
        <ele>4.19</ele>
        <time>2024-04-20T07:29:15.649Z</time>
      </trkpt>
      <trkpt lat="43.67465" lon="4.61087">
        <ele>4.4</ele>
        <time>2024-04-20T07:29:33.371Z</time>
      </trkpt>
      <trkpt lat="43.67452" lon="4.61062">
        <ele>4.63</ele>
        <time>2024-04-20T07:29:53.773Z</time>
      </trkpt>
      <trkpt lat="43.6744" lon="4.61034">
        <ele>4.84</ele>
        <time>2024-04-20T07:30:14.675Z</time>
      </trkpt>
      <trkpt lat="43.67432" lon="4.61004">
        <ele>4.9</ele>
        <time>2024-04-20T07:30:33.069Z</time>
      </trkpt>
      <trkpt lat="43.67427" lon="4.60973">
        <ele>4.66</ele>
        <time>2024-04-20T07:30:52.393Z</time>
      </trkpt>
      <trkpt lat="43.67421" lon="4.60943">
        <ele>4.27</ele>
        <time>2024-04-20T07:31:10.549Z</time>
      </trkpt>
      <trkpt lat="43.67414" lon="4.60913">
        <ele>3.98</ele>
        <time>2024-04-20T07:31:29.929Z</time>
      </trkpt>
      <trkpt lat="43.67409" lon="4.60882">
        <ele>3.92</ele>
        <time>2024-04-20T07:31:48.230Z</time>
      </trkpt>
      <trkpt lat="43.67404" lon="4.60851">
        <ele>3.97</ele>
        <time>2024-04-20T07:32:05.843Z</time>
      </trkpt>
      <trkpt lat="43.67398" lon="4.60822">
        <ele>3.98</ele>
        <time>2024-04-20T07:32:25.355Z</time>
      </trkpt>
      <trkpt lat="43.67392" lon="4.60791">
        <ele>3.99</ele>
        <time>2024-04-20T07:32:45.633Z</time>
      </trkpt>
      <trkpt lat="43.67384" lon="4.60762">
        <ele>4</ele>
        <time>2024-04-20T07:33:05.258Z</time>
      </trkpt>
      <trkpt lat="43.67376" lon="4.60733">
        <ele>3.99</ele>
        <time>2024-04-20T07:33:25.235Z</time>
      </trkpt>
      <trkpt lat="43.67374" lon="4.60702">
        <ele>3.95</ele>
        <time>2024-04-20T07:33:49.431Z</time>
      </trkpt>
      <trkpt lat="43.6738" lon="4.60671">
        <ele>3.95</ele>
        <time>2024-04-20T07:34:10.274Z</time>
      </trkpt>
      <trkpt lat="43.6739" lon="4.60643">
        <ele>3.86</ele>
        <time>2024-04-20T07:34:30.547Z</time>
      </trkpt>
      <trkpt lat="43.67385" lon="4.60613">
        <ele>3.8</ele>
        <time>2024-04-20T07:34:53.913Z</time>
      </trkpt>
      <trkpt lat="43.6737" lon="4.60589">
        <ele>4.2</ele>
        <time>2024-04-20T07:35:13.613Z</time>
      </trkpt>
      <trkpt lat="43.67366" lon="4.60558">
        <ele>4.33</ele>
        <time>2024-04-20T07:35:33.409Z</time>
      </trkpt>
      <trkpt lat="43.6736" lon="4.60528">
        <ele>4.28</ele>
        <time>2024-04-20T07:35:52.847Z</time>
      </trkpt>
      <trkpt lat="43.67357" lon="4.60497">
        <ele>4</ele>
        <time>2024-04-20T07:36:11.234Z</time>
      </trkpt>
      <trkpt lat="43.67356" lon="4.60465">
        <ele>3.54</ele>
        <time>2024-04-20T07:36:31.310Z</time>
      </trkpt>
      <trkpt lat="43.67352" lon="4.60434">
        <ele>3.09</ele>
        <time>2024-04-20T07:37:00.842Z</time>
      </trkpt>
      <trkpt lat="43.6734" lon="4.60406">
        <ele>2.92</ele>
        <time>2024-04-20T07:37:21.354Z</time>
      </trkpt>
      <trkpt lat="43.67332" lon="4.60376">
        <ele>2.94</ele>
        <time>2024-04-20T07:37:41.326Z</time>
      </trkpt>
      <trkpt lat="43.67321" lon="4.60349">
        <ele>3.1</ele>
        <time>2024-04-20T07:38:06.305Z</time>
      </trkpt>
      <trkpt lat="43.67313" lon="4.6032">
        <ele>3.17</ele>
        <time>2024-04-20T07:38:27.842Z</time>
      </trkpt>
      <trkpt lat="43.67306" lon="4.6029">
        <ele>3.12</ele>
        <time>2024-04-20T07:38:59.068Z</time>
      </trkpt>
      <trkpt lat="43.67299" lon="4.6026">
        <ele>2.99</ele>
        <time>2024-04-20T07:39:17.770Z</time>
      </trkpt>
      <trkpt lat="43.67292" lon="4.6023">
        <ele>2.9</ele>
        <time>2024-04-20T07:39:36.841Z</time>
      </trkpt>
      <trkpt lat="43.67287" lon="4.60199">
        <ele>2.9</ele>
        <time>2024-04-20T07:39:56.556Z</time>
      </trkpt>
      <trkpt lat="43.67283" lon="4.60168">
        <ele>2.93</ele>
        <time>2024-04-20T07:40:15.813Z</time>
      </trkpt>
      <trkpt lat="43.67278" lon="4.60137">
        <ele>2.98</ele>
        <time>2024-04-20T07:40:35.236Z</time>
      </trkpt>
      <trkpt lat="43.67274" lon="4.60106">
        <ele>3.04</ele>
        <time>2024-04-20T07:40:53.843Z</time>
      </trkpt>
      <trkpt lat="43.6727" lon="4.60075">
        <ele>2.94</ele>
        <time>2024-04-20T07:41:12.830Z</time>
      </trkpt>
      <trkpt lat="43.67265" lon="4.60044">
        <ele>2.52</ele>
        <time>2024-04-20T07:41:31.215Z</time>
      </trkpt>
      <trkpt lat="43.6726" lon="4.60013">
        <ele>2.09</ele>
        <time>2024-04-20T07:41:50.492Z</time>
      </trkpt>
      <trkpt lat="43.67256" lon="4.59983">
        <ele>2.12</ele>
        <time>2024-04-20T07:42:09.512Z</time>
      </trkpt>
      <trkpt lat="43.67252" lon="4.59951">
        <ele>2.62</ele>
        <time>2024-04-20T07:42:27.842Z</time>
      </trkpt>
      <trkpt lat="43.67246" lon="4.59921">
        <ele>2.99</ele>
        <time>2024-04-20T07:42:47.357Z</time>
      </trkpt>
      <trkpt lat="43.67244" lon="4.5989">
        <ele>2.76</ele>
        <time>2024-04-20T07:43:05.972Z</time>
      </trkpt>
      <trkpt lat="43.67239" lon="4.59859">
        <ele>2.26</ele>
        <time>2024-04-20T07:43:25.317Z</time>
      </trkpt>
      <trkpt lat="43.67236" lon="4.59828">
        <ele>2.07</ele>
        <time>2024-04-20T07:43:44.508Z</time>
      </trkpt>
      <trkpt lat="43.67231" lon="4.59797">
        <ele>2.42</ele>
        <time>2024-04-20T07:44:03.776Z</time>
      </trkpt>
      <trkpt lat="43.67228" lon="4.59767">
        <ele>2.86</ele>
        <time>2024-04-20T07:44:22.611Z</time>
      </trkpt>
      <trkpt lat="43.67223" lon="4.59736">
        <ele>3.06</ele>
        <time>2024-04-20T07:44:42.841Z</time>
      </trkpt>
      <trkpt lat="43.67219" lon="4.59705">
        <ele>3.09</ele>
        <time>2024-04-20T07:45:02.512Z</time>
      </trkpt>
      <trkpt lat="43.67216" lon="4.59674">
        <ele>3.03</ele>
        <time>2024-04-20T07:45:22.529Z</time>
      </trkpt>
      <trkpt lat="43.67211" lon="4.59643">
        <ele>2.87</ele>
        <time>2024-04-20T07:45:40.693Z</time>
      </trkpt>
      <trkpt lat="43.67205" lon="4.59613">
        <ele>2.7</ele>
        <time>2024-04-20T07:45:59.470Z</time>
      </trkpt>
      <trkpt lat="43.67192" lon="4.59587">
        <ele>2.73</ele>
        <time>2024-04-20T07:47:09.315Z</time>
      </trkpt>
      <trkpt lat="43.67178" lon="4.59562">
        <ele>2.69</ele>
        <time>2024-04-20T07:47:28.841Z</time>
      </trkpt>
      <trkpt lat="43.67165" lon="4.59536">
        <ele>2.43</ele>
        <time>2024-04-20T07:47:48.834Z</time>
      </trkpt>
      <trkpt lat="43.67153" lon="4.59509">
        <ele>2.19</ele>
        <time>2024-04-20T07:48:09.074Z</time>
      </trkpt>
      <trkpt lat="43.6714" lon="4.59485">
        <ele>2.23</ele>
        <time>2024-04-20T07:48:29.772Z</time>
      </trkpt>
      <trkpt lat="43.67126" lon="4.59459">
        <ele>2.44</ele>
        <time>2024-04-20T07:48:49.252Z</time>
      </trkpt>
      <trkpt lat="43.67113" lon="4.59433">
        <ele>2.69</ele>
        <time>2024-04-20T07:49:09.048Z</time>
      </trkpt>
      <trkpt lat="43.671" lon="4.59407">
        <ele>2.79</ele>
        <time>2024-04-20T07:49:29.535Z</time>
      </trkpt>
      <trkpt lat="43.67087" lon="4.59381">
        <ele>2.59</ele>
        <time>2024-04-20T07:49:49.476Z</time>
      </trkpt>
      <trkpt lat="43.67075" lon="4.59355">
        <ele>2.25</ele>
        <time>2024-04-20T07:50:08.332Z</time>
      </trkpt>
      <trkpt lat="43.67065" lon="4.59327">
        <ele>2.08</ele>
        <time>2024-04-20T07:50:29.616Z</time>
      </trkpt>
      <trkpt lat="43.6705" lon="4.59303">
        <ele>2.29</ele>
        <time>2024-04-20T07:50:48.596Z</time>
      </trkpt>
      <trkpt lat="43.67038" lon="4.59276">
        <ele>2.56</ele>
        <time>2024-04-20T07:51:08.710Z</time>
      </trkpt>
      <trkpt lat="43.67027" lon="4.59249">
        <ele>2.71</ele>
        <time>2024-04-20T07:51:28.235Z</time>
      </trkpt>
      <trkpt lat="43.67015" lon="4.59222">
        <ele>2.59</ele>
        <time>2024-04-20T07:51:48.168Z</time>
      </trkpt>
      <trkpt lat="43.67004" lon="4.59194">
        <ele>2.27</ele>
        <time>2024-04-20T07:52:07.609Z</time>
      </trkpt>
      <trkpt lat="43.6699" lon="4.5917">
        <ele>2.1</ele>
        <time>2024-04-20T07:52:36.472Z</time>
      </trkpt>
      <trkpt lat="43.66976" lon="4.59145">
        <ele>2.2</ele>
        <time>2024-04-20T07:52:56.575Z</time>
      </trkpt>
      <trkpt lat="43.66961" lon="4.5912">
        <ele>2.46</ele>
        <time>2024-04-20T07:53:15.191Z</time>
      </trkpt>
      <trkpt lat="43.66945" lon="4.59097">
        <ele>2.73</ele>
        <time>2024-04-20T07:53:34.371Z</time>
      </trkpt>
      <trkpt lat="43.66929" lon="4.59075">
        <ele>2.83</ele>
        <time>2024-04-20T07:53:53.832Z</time>
      </trkpt>
      <trkpt lat="43.66914" lon="4.59052">
        <ele>2.67</ele>
        <time>2024-04-20T07:54:12.695Z</time>
      </trkpt>
      <trkpt lat="43.66898" lon="4.5903">
        <ele>2.48</ele>
        <time>2024-04-20T07:54:29.812Z</time>
      </trkpt>
      <trkpt lat="43.66882" lon="4.59007">
        <ele>2.45</ele>
        <time>2024-04-20T07:54:49.512Z</time>
      </trkpt>
      <trkpt lat="43.66866" lon="4.58984">
        <ele>2.5</ele>
        <time>2024-04-20T07:55:11.249Z</time>
      </trkpt>
      <trkpt lat="43.66851" lon="4.58961">
        <ele>2.41</ele>
        <time>2024-04-20T07:55:30.575Z</time>
      </trkpt>
      <trkpt lat="43.66839" lon="4.58934">
        <ele>2.13</ele>
        <time>2024-04-20T07:55:49.133Z</time>
      </trkpt>
      <trkpt lat="43.6683" lon="4.58906">
        <ele>1.96</ele>
        <time>2024-04-20T07:56:07.855Z</time>
      </trkpt>
      <trkpt lat="43.66825" lon="4.58875">
        <ele>1.92</ele>
        <time>2024-04-20T07:58:32.631Z</time>
      </trkpt>
      <trkpt lat="43.66812" lon="4.58849">
        <ele>2.08</ele>
        <time>2024-04-20T07:59:11.571Z</time>
      </trkpt>
      <trkpt lat="43.66801" lon="4.58822">
        <ele>2.36</ele>
        <time>2024-04-20T07:59:33.312Z</time>
      </trkpt>
      <trkpt lat="43.66788" lon="4.58795">
        <ele>2.78</ele>
        <time>2024-04-20T07:59:52.172Z</time>
      </trkpt>
      <trkpt lat="43.66781" lon="4.58765">
        <ele>2.99</ele>
        <time>2024-04-20T08:00:09.875Z</time>
      </trkpt>
      <trkpt lat="43.66775" lon="4.58735">
        <ele>2.69</ele>
        <time>2024-04-20T08:00:29.095Z</time>
      </trkpt>
      <trkpt lat="43.66765" lon="4.58707">
        <ele>1.87</ele>
        <time>2024-04-20T08:00:48.841Z</time>
      </trkpt>
      <trkpt lat="43.66757" lon="4.58677">
        <ele>1.11</ele>
        <time>2024-04-20T08:01:07.255Z</time>
      </trkpt>
      <trkpt lat="43.66749" lon="4.58648">
        <ele>1.05</ele>
        <time>2024-04-20T08:01:27.428Z</time>
      </trkpt>
      <trkpt lat="43.66741" lon="4.58618">
        <ele>1.58</ele>
        <time>2024-04-20T08:01:47.436Z</time>
      </trkpt>
      <trkpt lat="43.66734" lon="4.58588">
        <ele>2.11</ele>
        <time>2024-04-20T08:02:06.840Z</time>
      </trkpt>
      <trkpt lat="43.66726" lon="4.58558">
        <ele>2.3</ele>
        <time>2024-04-20T08:02:25.596Z</time>
      </trkpt>
      <trkpt lat="43.66719" lon="4.58528">
        <ele>2.36</ele>
        <time>2024-04-20T08:02:45.099Z</time>
      </trkpt>
      <trkpt lat="43.66713" lon="4.58497">
        <ele>2.43</ele>
        <time>2024-04-20T08:03:04.555Z</time>
      </trkpt>
      <trkpt lat="43.66707" lon="4.58467">
        <ele>2.52</ele>
        <time>2024-04-20T08:03:23.334Z</time>
      </trkpt>
      <trkpt lat="43.66701" lon="4.58436">
        <ele>2.61</ele>
        <time>2024-04-20T08:03:43.169Z</time>
      </trkpt>
      <trkpt lat="43.66694" lon="4.58406">
        <ele>2.71</ele>
        <time>2024-04-20T08:04:02.611Z</time>
      </trkpt>
      <trkpt lat="43.66688" lon="4.58375">
        <ele>2.84</ele>
        <time>2024-04-20T08:04:21.317Z</time>
      </trkpt>
      <trkpt lat="43.66682" lon="4.58344">
        <ele>2.9</ele>
        <time>2024-04-20T08:04:40.715Z</time>
      </trkpt>
      <trkpt lat="43.66674" lon="4.58314">
        <ele>2.77</ele>
        <time>2024-04-20T08:05:00.175Z</time>
      </trkpt>
      <trkpt lat="43.66667" lon="4.58284">
        <ele>2.38</ele>
        <time>2024-04-20T08:05:19.713Z</time>
      </trkpt>
      <trkpt lat="43.6666" lon="4.58254">
        <ele>2.02</ele>
        <time>2024-04-20T08:05:39.192Z</time>
      </trkpt>
      <trkpt lat="43.66653" lon="4.58223">
        <ele>1.95</ele>
        <time>2024-04-20T08:05:58.930Z</time>
      </trkpt>
      <trkpt lat="43.66647" lon="4.58193">
        <ele>2.09</ele>
        <time>2024-04-20T08:06:17.575Z</time>
      </trkpt>
      <trkpt lat="43.6664" lon="4.58163">
        <ele>2.29</ele>
        <time>2024-04-20T08:06:38.091Z</time>
      </trkpt>
      <trkpt lat="43.66633" lon="4.58133">
        <ele>2.43</ele>
        <time>2024-04-20T08:06:56.735Z</time>
      </trkpt>
      <trkpt lat="43.66626" lon="4.58103">
        <ele>2.54</ele>
        <time>2024-04-20T08:07:15.350Z</time>
      </trkpt>
      <trkpt lat="43.66619" lon="4.58073">
        <ele>2.53</ele>
        <time>2024-04-20T08:07:34.695Z</time>
      </trkpt>
      <trkpt lat="43.66611" lon="4.58043">
        <ele>2.36</ele>
        <time>2024-04-20T08:07:54.434Z</time>
      </trkpt>
      <trkpt lat="43.66606" lon="4.58013">
        <ele>2.04</ele>
        <time>2024-04-20T08:08:13.319Z</time>
      </trkpt>
      <trkpt lat="43.66601" lon="4.57982">
        <ele>1.84</ele>
        <time>2024-04-20T08:08:33.355Z</time>
      </trkpt>
      <trkpt lat="43.66598" lon="4.57952">
        <ele>1.8</ele>
        <time>2024-04-20T08:08:52.133Z</time>
      </trkpt>
      <trkpt lat="43.66593" lon="4.5792">
        <ele>1.87</ele>
        <time>2024-04-20T08:09:12.035Z</time>
      </trkpt>
      <trkpt lat="43.6659" lon="4.57889">
        <ele>1.93</ele>
        <time>2024-04-20T08:09:30.841Z</time>
      </trkpt>
      <trkpt lat="43.66585" lon="4.57859">
        <ele>1.99</ele>
        <time>2024-04-20T08:09:49.592Z</time>
      </trkpt>
      <trkpt lat="43.66582" lon="4.57827">
        <ele>2.01</ele>
        <time>2024-04-20T08:10:08.850Z</time>
      </trkpt>
      <trkpt lat="43.66581" lon="4.57796">
        <ele>2.03</ele>
        <time>2024-04-20T08:10:28.734Z</time>
      </trkpt>
      <trkpt lat="43.66582" lon="4.57764">
        <ele>2.02</ele>
        <time>2024-04-20T08:10:53.319Z</time>
      </trkpt>
      <trkpt lat="43.66581" lon="4.57732">
        <ele>2.02</ele>
        <time>2024-04-20T08:11:12.169Z</time>
      </trkpt>
      <trkpt lat="43.66582" lon="4.57701">
        <ele>2.01</ele>
        <time>2024-04-20T08:11:31.215Z</time>
      </trkpt>
      <trkpt lat="43.66583" lon="4.57669">
        <ele>2</ele>
        <time>2024-04-20T08:11:50.196Z</time>
      </trkpt>
      <trkpt lat="43.66585" lon="4.57638">
        <ele>1.99</ele>
        <time>2024-04-20T08:12:08.571Z</time>
      </trkpt>
      <trkpt lat="43.66586" lon="4.57606">
        <ele>2</ele>
        <time>2024-04-20T08:12:27.629Z</time>
      </trkpt>
      <trkpt lat="43.66586" lon="4.57575">
        <ele>2</ele>
        <time>2024-04-20T08:12:46.868Z</time>
      </trkpt>
      <trkpt lat="43.66584" lon="4.57544">
        <ele>2</ele>
        <time>2024-04-20T08:13:06.321Z</time>
      </trkpt>
      <trkpt lat="43.66584" lon="4.57513">
        <ele>2</ele>
        <time>2024-04-20T08:13:24.711Z</time>
      </trkpt>
      <trkpt lat="43.66583" lon="4.57482">
        <ele>2</ele>
        <time>2024-04-20T08:13:43.212Z</time>
      </trkpt>
      <trkpt lat="43.66582" lon="4.5745">
        <ele>2</ele>
        <time>2024-04-20T08:14:02.250Z</time>
      </trkpt>
      <trkpt lat="43.66581" lon="4.57418">
        <ele>2.01</ele>
        <time>2024-04-20T08:14:21.854Z</time>
      </trkpt>
      <trkpt lat="43.6658" lon="4.57387">
        <ele>2.03</ele>
        <time>2024-04-20T08:14:41.391Z</time>
      </trkpt>
      <trkpt lat="43.6658" lon="4.57355">
        <ele>2.04</ele>
        <time>2024-04-20T08:15:00.353Z</time>
      </trkpt>
      <trkpt lat="43.66579" lon="4.57324">
        <ele>2.05</ele>
        <time>2024-04-20T08:15:19.429Z</time>
      </trkpt>
      <trkpt lat="43.66576" lon="4.57293">
        <ele>2.07</ele>
        <time>2024-04-20T08:15:38.532Z</time>
      </trkpt>
      <trkpt lat="43.66556" lon="4.57278">
        <ele>2.19</ele>
        <time>2024-04-20T08:16:00.212Z</time>
      </trkpt>
      <trkpt lat="43.66533" lon="4.57279">
        <ele>2.3</ele>
        <time>2024-04-20T08:16:19.546Z</time>
      </trkpt>
      <trkpt lat="43.66516" lon="4.57258">
        <ele>2.07</ele>
        <time>2024-04-20T08:16:42.216Z</time>
      </trkpt>
      <trkpt lat="43.66514" lon="4.57226">
        <ele>1.94</ele>
        <time>2024-04-20T08:17:02.840Z</time>
      </trkpt>
      <trkpt lat="43.66515" lon="4.57195">
        <ele>1.97</ele>
        <time>2024-04-20T08:17:29.315Z</time>
      </trkpt>
      <trkpt lat="43.66516" lon="4.57164">
        <ele>2</ele>
        <time>2024-04-20T08:17:48.108Z</time>
      </trkpt>
      <trkpt lat="43.66512" lon="4.57133">
        <ele>2</ele>
        <time>2024-04-20T08:18:08.068Z</time>
      </trkpt>
      <trkpt lat="43.6651" lon="4.57102">
        <ele>2</ele>
        <time>2024-04-20T08:18:28.056Z</time>
      </trkpt>
      <trkpt lat="43.66505" lon="4.57071">
        <ele>2</ele>
        <time>2024-04-20T08:18:47.488Z</time>
      </trkpt>
      <trkpt lat="43.66502" lon="4.57039">
        <ele>2</ele>
        <time>2024-04-20T08:19:07.332Z</time>
      </trkpt>
      <trkpt lat="43.665" lon="4.57008">
        <ele>2</ele>
        <time>2024-04-20T08:19:26.033Z</time>
      </trkpt>
      <trkpt lat="43.66497" lon="4.56976">
        <ele>2</ele>
        <time>2024-04-20T08:19:46.069Z</time>
      </trkpt>
      <trkpt lat="43.66495" lon="4.56945">
        <ele>2</ele>
        <time>2024-04-20T08:20:04.713Z</time>
      </trkpt>
      <trkpt lat="43.66491" lon="4.56914">
        <ele>2</ele>
        <time>2024-04-20T08:20:24.826Z</time>
      </trkpt>
      <trkpt lat="43.66485" lon="4.56884">
        <ele>2</ele>
        <time>2024-04-20T08:20:44.317Z</time>
      </trkpt>
      <trkpt lat="43.66482" lon="4.56852">
        <ele>2</ele>
        <time>2024-04-20T08:21:03.690Z</time>
      </trkpt>
      <trkpt lat="43.66478" lon="4.56822">
        <ele>2</ele>
        <time>2024-04-20T08:21:23.773Z</time>
      </trkpt>
      <trkpt lat="43.66475" lon="4.5679">
        <ele>2</ele>
        <time>2024-04-20T08:21:43.053Z</time>
      </trkpt>
      <trkpt lat="43.66471" lon="4.56759">
        <ele>2</ele>
        <time>2024-04-20T08:22:02.033Z</time>
      </trkpt>
      <trkpt lat="43.66468" lon="4.56728">
        <ele>2</ele>
        <time>2024-04-20T08:22:33.729Z</time>
      </trkpt>
      <trkpt lat="43.66464" lon="4.56697">
        <ele>2</ele>
        <time>2024-04-20T08:22:52.633Z</time>
      </trkpt>
      <trkpt lat="43.66461" lon="4.56666">
        <ele>2</ele>
        <time>2024-04-20T08:23:12.651Z</time>
      </trkpt>
      <trkpt lat="43.66461" lon="4.56634">
        <ele>2</ele>
        <time>2024-04-20T08:23:32.389Z</time>
      </trkpt>
      <trkpt lat="43.6646" lon="4.56603">
        <ele>2</ele>
        <time>2024-04-20T08:23:51.196Z</time>
      </trkpt>
      <trkpt lat="43.66459" lon="4.56572">
        <ele>2</ele>
        <time>2024-04-20T08:24:09.870Z</time>
      </trkpt>
      <trkpt lat="43.66459" lon="4.56541">
        <ele>2</ele>
        <time>2024-04-20T08:24:28.474Z</time>
      </trkpt>
      <trkpt lat="43.66458" lon="4.56509">
        <ele>2</ele>
        <time>2024-04-20T08:24:48.049Z</time>
      </trkpt>
      <trkpt lat="43.66457" lon="4.56478">
        <ele>2.02</ele>
        <time>2024-04-20T08:25:07.971Z</time>
      </trkpt>
      <trkpt lat="43.66455" lon="4.56447">
        <ele>2.05</ele>
        <time>2024-04-20T08:25:27.488Z</time>
      </trkpt>
      <trkpt lat="43.66454" lon="4.56415">
        <ele>2.07</ele>
        <time>2024-04-20T08:25:46.775Z</time>
      </trkpt>
      <trkpt lat="43.66454" lon="4.56384">
        <ele>2.05</ele>
        <time>2024-04-20T08:26:05.372Z</time>
      </trkpt>
      <trkpt lat="43.66451" lon="4.56353">
        <ele>2.02</ele>
        <time>2024-04-20T08:26:23.371Z</time>
      </trkpt>
      <trkpt lat="43.66451" lon="4.56322">
        <ele>2</ele>
        <time>2024-04-20T08:26:41.839Z</time>
      </trkpt>
      <trkpt lat="43.66448" lon="4.5629">
        <ele>2.04</ele>
        <time>2024-04-20T08:27:01.113Z</time>
      </trkpt>
      <trkpt lat="43.66445" lon="4.56259">
        <ele>2.03</ele>
        <time>2024-04-20T08:27:19.707Z</time>
      </trkpt>
      <trkpt lat="43.66443" lon="4.56228">
        <ele>1.84</ele>
        <time>2024-04-20T08:27:39.349Z</time>
      </trkpt>
      <trkpt lat="43.6644" lon="4.56197">
        <ele>1.49</ele>
        <time>2024-04-20T08:27:58.369Z</time>
      </trkpt>
      <trkpt lat="43.66436" lon="4.56165">
        <ele>1.18</ele>
        <time>2024-04-20T08:28:17.636Z</time>
      </trkpt>
      <trkpt lat="43.6643" lon="4.56135">
        <ele>1.06</ele>
        <time>2024-04-20T08:28:37.068Z</time>
      </trkpt>
      <trkpt lat="43.66425" lon="4.56104">
        <ele>1.04</ele>
        <time>2024-04-20T08:28:56.133Z</time>
      </trkpt>
      <trkpt lat="43.66419" lon="4.56074">
        <ele>1.02</ele>
        <time>2024-04-20T08:29:14.576Z</time>
      </trkpt>
      <trkpt lat="43.66414" lon="4.56043">
        <ele>0.99</ele>
        <time>2024-04-20T08:29:33.556Z</time>
      </trkpt>
      <trkpt lat="43.66409" lon="4.56013">
        <ele>0.96</ele>
        <time>2024-04-20T08:29:52.469Z</time>
      </trkpt>
      <trkpt lat="43.66403" lon="4.55982">
        <ele>0.95</ele>
        <time>2024-04-20T08:30:11.574Z</time>
      </trkpt>
      <trkpt lat="43.66397" lon="4.55952">
        <ele>0.96</ele>
        <time>2024-04-20T08:30:31.130Z</time>
      </trkpt>
      <trkpt lat="43.66392" lon="4.55921">
        <ele>0.97</ele>
        <time>2024-04-20T08:30:50.677Z</time>
      </trkpt>
      <trkpt lat="43.66385" lon="4.55891">
        <ele>0.97</ele>
        <time>2024-04-20T08:31:09.772Z</time>
      </trkpt>
      <trkpt lat="43.66379" lon="4.5586">
        <ele>0.98</ele>
        <time>2024-04-20T08:31:29.312Z</time>
      </trkpt>
      <trkpt lat="43.66373" lon="4.5583">
        <ele>1</ele>
        <time>2024-04-20T08:31:48.770Z</time>
      </trkpt>
      <trkpt lat="43.66368" lon="4.558">
        <ele>1.01</ele>
        <time>2024-04-20T08:32:08.268Z</time>
      </trkpt>
      <trkpt lat="43.66362" lon="4.5577">
        <ele>1</ele>
        <time>2024-04-20T08:32:27.488Z</time>
      </trkpt>
      <trkpt lat="43.66354" lon="4.5574">
        <ele>1</ele>
        <time>2024-04-20T08:32:47.428Z</time>
      </trkpt>
      <trkpt lat="43.66348" lon="4.5571">
        <ele>1</ele>
        <time>2024-04-20T08:33:06.753Z</time>
      </trkpt>
      <trkpt lat="43.66343" lon="4.55679">
        <ele>1</ele>
        <time>2024-04-20T08:33:25.675Z</time>
      </trkpt>
      <trkpt lat="43.66336" lon="4.55648">
        <ele>1</ele>
        <time>2024-04-20T08:33:45.030Z</time>
      </trkpt>
      <trkpt lat="43.66328" lon="4.55618">
        <ele>1</ele>
        <time>2024-04-20T08:34:15.690Z</time>
      </trkpt>
      <trkpt lat="43.6632" lon="4.55588">
        <ele>1</ele>
        <time>2024-04-20T08:34:34.391Z</time>
      </trkpt>
      <trkpt lat="43.66314" lon="4.55558">
        <ele>1.01</ele>
        <time>2024-04-20T08:34:53.630Z</time>
      </trkpt>
      <trkpt lat="43.66308" lon="4.55527">
        <ele>1.02</ele>
        <time>2024-04-20T08:35:12.841Z</time>
      </trkpt>
      <trkpt lat="43.66302" lon="4.55497">
        <ele>0.99</ele>
        <time>2024-04-20T08:35:32.325Z</time>
      </trkpt>
      <trkpt lat="43.66298" lon="4.55465">
        <ele>0.84</ele>
        <time>2024-04-20T08:35:51.732Z</time>
      </trkpt>
      <trkpt lat="43.66292" lon="4.55434">
        <ele>0.59</ele>
        <time>2024-04-20T08:36:10.319Z</time>
      </trkpt>
      <trkpt lat="43.66286" lon="4.55404">
        <ele>0.37</ele>
        <time>2024-04-20T08:36:30.074Z</time>
      </trkpt>
      <trkpt lat="43.6628" lon="4.55373">
        <ele>0.24</ele>
        <time>2024-04-20T08:36:48.748Z</time>
      </trkpt>
      <trkpt lat="43.66275" lon="4.55342">
        <ele>0.22</ele>
        <time>2024-04-20T08:37:08.688Z</time>
      </trkpt>
      <trkpt lat="43.66269" lon="4.55311">
        <ele>0.38</ele>
        <time>2024-04-20T08:37:28.627Z</time>
      </trkpt>
      <trkpt lat="43.66264" lon="4.5528">
        <ele>0.75</ele>
        <time>2024-04-20T08:37:47.973Z</time>
      </trkpt>
      <trkpt lat="43.66258" lon="4.5525">
        <ele>1.04</ele>
        <time>2024-04-20T08:38:07.838Z</time>
      </trkpt>
      <trkpt lat="43.66253" lon="4.55219">
        <ele>1.09</ele>
        <time>2024-04-20T08:38:27.555Z</time>
      </trkpt>
      <trkpt lat="43.66247" lon="4.55189">
        <ele>1.01</ele>
        <time>2024-04-20T08:38:46.977Z</time>
      </trkpt>
      <trkpt lat="43.66243" lon="4.55158">
        <ele>0.94</ele>
        <time>2024-04-20T08:39:05.870Z</time>
      </trkpt>
      <trkpt lat="43.66237" lon="4.55127">
        <ele>0.89</ele>
        <time>2024-04-20T08:39:25.993Z</time>
      </trkpt>
      <trkpt lat="43.66232" lon="4.55097">
        <ele>0.83</ele>
        <time>2024-04-20T08:39:45.316Z</time>
      </trkpt>
      <trkpt lat="43.66227" lon="4.55067">
        <ele>0.76</ele>
        <time>2024-04-20T08:40:04.509Z</time>
      </trkpt>
      <trkpt lat="43.66222" lon="4.55036">
        <ele>0.7</ele>
        <time>2024-04-20T08:40:23.632Z</time>
      </trkpt>
      <trkpt lat="43.66216" lon="4.55006">
        <ele>0.61</ele>
        <time>2024-04-20T08:40:42.170Z</time>
      </trkpt>
      <trkpt lat="43.6621" lon="4.54975">
        <ele>0.53</ele>
        <time>2024-04-20T08:41:01.148Z</time>
      </trkpt>
      <trkpt lat="43.66204" lon="4.54945">
        <ele>0.44</ele>
        <time>2024-04-20T08:41:21.530Z</time>
      </trkpt>
      <trkpt lat="43.66201" lon="4.54913">
        <ele>0.39</ele>
        <time>2024-04-20T08:41:41.548Z</time>
      </trkpt>
      <trkpt lat="43.66199" lon="4.54882">
        <ele>0.31</ele>
        <time>2024-04-20T08:42:01.036Z</time>
      </trkpt>
      <trkpt lat="43.66197" lon="4.54851">
        <ele>0.24</ele>
        <time>2024-04-20T08:42:20.327Z</time>
      </trkpt>
      <trkpt lat="43.66193" lon="4.54819">
        <ele>0.25</ele>
        <time>2024-04-20T08:42:39.736Z</time>
      </trkpt>
      <trkpt lat="43.6619" lon="4.54788">
        <ele>0.37</ele>
        <time>2024-04-20T08:42:58.869Z</time>
      </trkpt>
      <trkpt lat="43.66188" lon="4.54757">
        <ele>0.44</ele>
        <time>2024-04-20T08:43:18.492Z</time>
      </trkpt>
      <trkpt lat="43.66187" lon="4.54725">
        <ele>0.39</ele>
        <time>2024-04-20T08:43:38.010Z</time>
      </trkpt>
      <trkpt lat="43.6619" lon="4.54694">
        <ele>0.31</ele>
        <time>2024-04-20T08:43:57.652Z</time>
      </trkpt>
      <trkpt lat="43.66192" lon="4.54663">
        <ele>0.26</ele>
        <time>2024-04-20T08:44:17.410Z</time>
      </trkpt>
      <trkpt lat="43.66195" lon="4.54632">
        <ele>0.26</ele>
        <time>2024-04-20T08:44:36.456Z</time>
      </trkpt>
      <trkpt lat="43.66198" lon="4.54601">
        <ele>0.32</ele>
        <time>2024-04-20T08:44:56.732Z</time>
      </trkpt>
      <trkpt lat="43.66207" lon="4.54572">
        <ele>0.61</ele>
        <time>2024-04-20T08:45:18.631Z</time>
      </trkpt>
      <trkpt lat="43.66192" lon="4.54549">
        <ele>0.65</ele>
        <time>2024-04-20T08:50:00.229Z</time>
      </trkpt>
      <trkpt lat="43.66172" lon="4.54534">
        <ele>0.66</ele>
        <time>2024-04-20T08:50:25.233Z</time>
      </trkpt>
      <trkpt lat="43.66153" lon="4.54518">
        <ele>0.69</ele>
        <time>2024-04-20T08:50:47.334Z</time>
      </trkpt>
      <trkpt lat="43.66136" lon="4.54497">
        <ele>0.65</ele>
        <time>2024-04-20T08:51:17.708Z</time>
      </trkpt>
      <trkpt lat="43.66118" lon="4.54479">
        <ele>0.65</ele>
        <time>2024-04-20T08:51:36.650Z</time>
      </trkpt>
      <trkpt lat="43.66099" lon="4.5446">
        <ele>1.02</ele>
        <time>2024-04-20T08:51:55.409Z</time>
      </trkpt>
      <trkpt lat="43.6608" lon="4.54441">
        <ele>1.57</ele>
        <time>2024-04-20T08:52:14.716Z</time>
      </trkpt>
      <trkpt lat="43.66063" lon="4.5442">
        <ele>1.86</ele>
        <time>2024-04-20T08:52:32.832Z</time>
      </trkpt>
      <trkpt lat="43.66054" lon="4.54391">
        <ele>1.69</ele>
        <time>2024-04-20T08:52:52.274Z</time>
      </trkpt>
      <trkpt lat="43.66054" lon="4.54359">
        <ele>1.31</ele>
        <time>2024-04-20T08:53:11.734Z</time>
      </trkpt>
      <trkpt lat="43.66057" lon="4.54328">
        <ele>0.95</ele>
        <time>2024-04-20T08:53:30.494Z</time>
      </trkpt>
      <trkpt lat="43.66059" lon="4.54296">
        <ele>0.6</ele>
        <time>2024-04-20T08:53:49.436Z</time>
      </trkpt>
      <trkpt lat="43.66062" lon="4.54264">
        <ele>0.26</ele>
        <time>2024-04-20T08:54:07.696Z</time>
      </trkpt>
      <trkpt lat="43.66059" lon="4.54233">
        <ele>0.15</ele>
        <time>2024-04-20T08:54:26.714Z</time>
      </trkpt>
      <trkpt lat="43.6605" lon="4.54204">
        <ele>0.28</ele>
        <time>2024-04-20T08:54:46.750Z</time>
      </trkpt>
      <trkpt lat="43.66039" lon="4.54175">
        <ele>0.47</ele>
        <time>2024-04-20T08:55:06.471Z</time>
      </trkpt>
      <trkpt lat="43.6603" lon="4.54147">
        <ele>0.67</ele>
        <time>2024-04-20T08:55:25.816Z</time>
      </trkpt>
      <trkpt lat="43.6602" lon="4.54118">
        <ele>0.9</ele>
        <time>2024-04-20T08:55:45.074Z</time>
      </trkpt>
      <trkpt lat="43.66011" lon="4.54089">
        <ele>0.99</ele>
        <time>2024-04-20T08:56:04.431Z</time>
      </trkpt>
      <trkpt lat="43.66001" lon="4.54061">
        <ele>0.77</ele>
        <time>2024-04-20T08:56:24.094Z</time>
      </trkpt>
      <trkpt lat="43.65991" lon="4.54032">
        <ele>0.39</ele>
        <time>2024-04-20T08:56:43.688Z</time>
      </trkpt>
      <trkpt lat="43.65981" lon="4.54003">
        <ele>0.21</ele>
        <time>2024-04-20T08:57:02.832Z</time>
      </trkpt>
      <trkpt lat="43.65973" lon="4.53973">
        <ele>0.17</ele>
        <time>2024-04-20T08:57:22.350Z</time>
      </trkpt>
      <trkpt lat="43.65963" lon="4.53945">
        <ele>0.06</ele>
        <time>2024-04-20T08:57:41.656Z</time>
      </trkpt>
      <trkpt lat="43.65952" lon="4.53917">
        <ele>-0.05</ele>
        <time>2024-04-20T08:58:01.751Z</time>
      </trkpt>
      <trkpt lat="43.65943" lon="4.53888">
        <ele>0.17</ele>
        <time>2024-04-20T08:58:21.096Z</time>
      </trkpt>
      <trkpt lat="43.65933" lon="4.5386">
        <ele>0.65</ele>
        <time>2024-04-20T08:58:41.537Z</time>
      </trkpt>
      <trkpt lat="43.65924" lon="4.53831">
        <ele>0.94</ele>
        <time>2024-04-20T08:59:01.534Z</time>
      </trkpt>
      <trkpt lat="43.65914" lon="4.53802">
        <ele>0.75</ele>
        <time>2024-04-20T08:59:21.513Z</time>
      </trkpt>
      <trkpt lat="43.65904" lon="4.53774">
        <ele>0.36</ele>
        <time>2024-04-20T08:59:41.455Z</time>
      </trkpt>
      <trkpt lat="43.65895" lon="4.53746">
        <ele>0.2</ele>
        <time>2024-04-20T09:00:01.328Z</time>
      </trkpt>
      <trkpt lat="43.65886" lon="4.53716">
        <ele>0.31</ele>
        <time>2024-04-20T09:00:27.694Z</time>
      </trkpt>
      <trkpt lat="43.65878" lon="4.53687">
        <ele>0.48</ele>
        <time>2024-04-20T09:00:46.568Z</time>
      </trkpt>
      <trkpt lat="43.6587" lon="4.53657">
        <ele>0.53</ele>
        <time>2024-04-20T09:01:05.990Z</time>
      </trkpt>
      <trkpt lat="43.65861" lon="4.53628">
        <ele>0.3</ele>
        <time>2024-04-20T09:01:24.654Z</time>
      </trkpt>
      <trkpt lat="43.65853" lon="4.53599">
        <ele>-0.01</ele>
        <time>2024-04-20T09:01:44.451Z</time>
      </trkpt>
      <trkpt lat="43.65844" lon="4.5357">
        <ele>0.03</ele>
        <time>2024-04-20T09:02:03.749Z</time>
      </trkpt>
      <trkpt lat="43.65836" lon="4.53541">
        <ele>0.51</ele>
        <time>2024-04-20T09:02:23.276Z</time>
      </trkpt>
      <trkpt lat="43.65829" lon="4.53511">
        <ele>0.95</ele>
        <time>2024-04-20T09:02:45.070Z</time>
      </trkpt>
      <trkpt lat="43.65819" lon="4.53483">
        <ele>0.84</ele>
        <time>2024-04-20T09:03:04.770Z</time>
      </trkpt>
      <trkpt lat="43.65812" lon="4.53453">
        <ele>0.38</ele>
        <time>2024-04-20T09:03:24.414Z</time>
      </trkpt>
      <trkpt lat="43.65803" lon="4.53424">
        <ele>0.03</ele>
        <time>2024-04-20T09:03:44.593Z</time>
      </trkpt>
      <trkpt lat="43.65794" lon="4.53395">
        <ele>0.07</ele>
        <time>2024-04-20T09:04:03.708Z</time>
      </trkpt>
      <trkpt lat="43.65786" lon="4.53365">
        <ele>0.4</ele>
        <time>2024-04-20T09:04:23.410Z</time>
      </trkpt>
      <trkpt lat="43.65777" lon="4.53337">
        <ele>0.78</ele>
        <time>2024-04-20T09:04:41.832Z</time>
      </trkpt>
      <trkpt lat="43.65768" lon="4.53307">
        <ele>0.99</ele>
        <time>2024-04-20T09:05:00.370Z</time>
      </trkpt>
      <trkpt lat="43.6576" lon="4.53278">
        <ele>1.08</ele>
        <time>2024-04-20T09:05:19.999Z</time>
      </trkpt>
      <trkpt lat="43.65751" lon="4.53249">
        <ele>0.99</ele>
        <time>2024-04-20T09:05:38.732Z</time>
      </trkpt>
      <trkpt lat="43.65742" lon="4.5322">
        <ele>0.68</ele>
        <time>2024-04-20T09:05:57.416Z</time>
      </trkpt>
      <trkpt lat="43.65732" lon="4.53191">
        <ele>0.36</ele>
        <time>2024-04-20T09:06:16.674Z</time>
      </trkpt>
      <trkpt lat="43.65727" lon="4.5316">
        <ele>0.24</ele>
        <time>2024-04-20T09:06:37.613Z</time>
      </trkpt>
      <trkpt lat="43.65717" lon="4.53132">
        <ele>0.41</ele>
        <time>2024-04-20T09:06:57.554Z</time>
      </trkpt>
      <trkpt lat="43.65709" lon="4.53102">
        <ele>0.59</ele>
        <time>2024-04-20T09:07:17.572Z</time>
      </trkpt>
      <trkpt lat="43.657" lon="4.53073">
        <ele>0.64</ele>
        <time>2024-04-20T09:07:38.136Z</time>
      </trkpt>
      <trkpt lat="43.65691" lon="4.53044">
        <ele>0.39</ele>
        <time>2024-04-20T09:07:57.838Z</time>
      </trkpt>
      <trkpt lat="43.65682" lon="4.53015">
        <ele>0.07</ele>
        <time>2024-04-20T09:08:17.838Z</time>
      </trkpt>
      <trkpt lat="43.65674" lon="4.52986">
        <ele>0.08</ele>
        <time>2024-04-20T09:08:37.728Z</time>
      </trkpt>
      <trkpt lat="43.65666" lon="4.52957">
        <ele>0.53</ele>
        <time>2024-04-20T09:08:56.430Z</time>
      </trkpt>
      <trkpt lat="43.65656" lon="4.52928">
        <ele>0.92</ele>
        <time>2024-04-20T09:09:15.708Z</time>
      </trkpt>
      <trkpt lat="43.65648" lon="4.52898">
        <ele>0.79</ele>
        <time>2024-04-20T09:09:34.468Z</time>
      </trkpt>
      <trkpt lat="43.65639" lon="4.52869">
        <ele>0.32</ele>
        <time>2024-04-20T09:09:53.573Z</time>
      </trkpt>
      <trkpt lat="43.6563" lon="4.52841">
        <ele>1</ele>
        <time>2024-04-20T09:10:12.696Z</time>
      </trkpt>
      <trkpt lat="43.65623" lon="4.52811">
        <ele>0.26</ele>
        <time>2024-04-20T09:10:31.254Z</time>
      </trkpt>
      <trkpt lat="43.65617" lon="4.5278">
        <ele>1.02</ele>
        <time>2024-04-20T09:10:51.733Z</time>
      </trkpt>
      <trkpt lat="43.65608" lon="4.5275">
        <ele>1.64</ele>
        <time>2024-04-20T09:11:12.328Z</time>
      </trkpt>
      <trkpt lat="43.65599" lon="4.52721">
        <ele>1.36</ele>
        <time>2024-04-20T09:11:32.710Z</time>
      </trkpt>
      <trkpt lat="43.65594" lon="4.5269">
        <ele>0.43</ele>
        <time>2024-04-20T09:11:53.331Z</time>
      </trkpt>
      <trkpt lat="43.65589" lon="4.52659">
        <ele>-0.02</ele>
        <time>2024-04-20T09:12:12.773Z</time>
      </trkpt>
      <trkpt lat="43.65583" lon="4.52628">
        <ele>0.38</ele>
        <time>2024-04-20T09:12:32.886Z</time>
      </trkpt>
      <trkpt lat="43.65593" lon="4.526">
        <ele>0.81</ele>
        <time>2024-04-20T09:12:55.113Z</time>
      </trkpt>
      <trkpt lat="43.65589" lon="4.52569">
        <ele>0.9</ele>
        <time>2024-04-20T09:13:13.835Z</time>
      </trkpt>
      <trkpt lat="43.65582" lon="4.52539">
        <ele>0.53</ele>
        <time>2024-04-20T09:13:32.856Z</time>
      </trkpt>
      <trkpt lat="43.65574" lon="4.5251">
        <ele>0.1</ele>
        <time>2024-04-20T09:13:53.208Z</time>
      </trkpt>
      <trkpt lat="43.65565" lon="4.52481">
        <ele>-0.07</ele>
        <time>2024-04-20T09:14:17.361Z</time>
      </trkpt>
      <trkpt lat="43.65554" lon="4.52454">
        <ele>-0.06</ele>
        <time>2024-04-20T09:14:39.447Z</time>
      </trkpt>
      <trkpt lat="43.65545" lon="4.52424">
        <time>2024-04-20T09:15:08.390Z</time>
      </trkpt>
      <trkpt lat="43.65538" lon="4.52395">
        <time>2024-04-20T09:15:30.232Z</time>
      </trkpt>
      <trkpt lat="43.65529" lon="4.52366">
        <ele>1</ele>
        <time>2024-04-20T09:15:50.114Z</time>
      </trkpt>
      <trkpt lat="43.6552" lon="4.52338">
        <ele>1</ele>
        <time>2024-04-20T09:16:09.328Z</time>
      </trkpt>
      <trkpt lat="43.65512" lon="4.52307">
        <time>2024-04-20T09:16:28.328Z</time>
      </trkpt>
      <trkpt lat="43.65502" lon="4.52279">
        <ele>1</ele>
        <time>2024-04-20T09:16:46.930Z</time>
      </trkpt>
      <trkpt lat="43.65493" lon="4.5225">
        <ele>1</ele>
        <time>2024-04-20T09:17:06.371Z</time>
      </trkpt>
      <trkpt lat="43.65484" lon="4.52222">
        <ele>0.06</ele>
        <time>2024-04-20T09:17:24.208Z</time>
      </trkpt>
      <trkpt lat="43.65476" lon="4.52192">
        <ele>0.23</ele>
        <time>2024-04-20T09:17:43.036Z</time>
      </trkpt>
      <trkpt lat="43.65466" lon="4.52163">
        <ele>0.43</ele>
        <time>2024-04-20T09:18:01.468Z</time>
      </trkpt>
      <trkpt lat="43.65457" lon="4.52135">
        <ele>0.4</ele>
        <time>2024-04-20T09:18:21.330Z</time>
      </trkpt>
      <trkpt lat="43.65447" lon="4.52107">
        <ele>0.15</ele>
        <time>2024-04-20T09:18:43.193Z</time>
      </trkpt>
      <trkpt lat="43.65436" lon="4.52079">
        <ele>0.01</ele>
        <time>2024-04-20T09:19:02.731Z</time>
      </trkpt>
      <trkpt lat="43.65427" lon="4.5205">
        <ele>0.34</ele>
        <time>2024-04-20T09:19:22.575Z</time>
      </trkpt>
      <trkpt lat="43.65417" lon="4.52022">
        <ele>0.83</ele>
        <time>2024-04-20T09:19:42.535Z</time>
      </trkpt>
      <trkpt lat="43.65408" lon="4.51993">
        <ele>0.96</ele>
        <time>2024-04-20T09:20:01.669Z</time>
      </trkpt>
      <trkpt lat="43.654" lon="4.51964">
        <ele>0.58</ele>
        <time>2024-04-20T09:20:21.456Z</time>
      </trkpt>
      <trkpt lat="43.65391" lon="4.51935">
        <ele>0.13</ele>
        <time>2024-04-20T09:20:39.476Z</time>
      </trkpt>
      <trkpt lat="43.65382" lon="4.51906">
        <ele>0.01</ele>
        <time>2024-04-20T09:20:59.147Z</time>
      </trkpt>
      <trkpt lat="43.65372" lon="4.51878">
        <ele>0.25</ele>
        <time>2024-04-20T09:21:20.727Z</time>
      </trkpt>
      <trkpt lat="43.65363" lon="4.51849">
        <ele>0.65</ele>
        <time>2024-04-20T09:21:41.373Z</time>
      </trkpt>
      <trkpt lat="43.65354" lon="4.51819">
        <ele>0.94</ele>
        <time>2024-04-20T09:22:02.171Z</time>
      </trkpt>
      <trkpt lat="43.65344" lon="4.51791">
        <ele>1.08</ele>
        <time>2024-04-20T09:22:21.836Z</time>
      </trkpt>
      <trkpt lat="43.65335" lon="4.51762">
        <ele>1.06</ele>
        <time>2024-04-20T09:22:41.589Z</time>
      </trkpt>
      <trkpt lat="43.65327" lon="4.51733">
        <ele>0.83</ele>
        <time>2024-04-20T09:23:02.115Z</time>
      </trkpt>
      <trkpt lat="43.65318" lon="4.51703">
        <ele>0.39</ele>
        <time>2024-04-20T09:23:21.431Z</time>
      </trkpt>
      <trkpt lat="43.65309" lon="4.51674">
        <ele>0.05</ele>
        <time>2024-04-20T09:23:40.815Z</time>
      </trkpt>
      <trkpt lat="43.65299" lon="4.51646">
        <ele>-0.06</ele>
        <time>2024-04-20T09:23:59.248Z</time>
      </trkpt>
      <trkpt lat="43.6529" lon="4.51618">
        <ele>-0.07</ele>
        <time>2024-04-20T09:24:18.074Z</time>
      </trkpt>
      <trkpt lat="43.65281" lon="4.51589">
        <ele>-0.02</ele>
        <time>2024-04-20T09:24:36.468Z</time>
      </trkpt>
      <trkpt lat="43.65272" lon="4.5156">
        <ele>0.22</ele>
        <time>2024-04-20T09:24:55.409Z</time>
      </trkpt>
      <trkpt lat="43.65263" lon="4.51531">
        <ele>0.68</ele>
        <time>2024-04-20T09:25:14.351Z</time>
      </trkpt>
      <trkpt lat="43.65255" lon="4.51503">
        <ele>0.99</ele>
        <time>2024-04-20T09:25:32.996Z</time>
      </trkpt>
      <trkpt lat="43.65245" lon="4.51474">
        <ele>0.8</ele>
        <time>2024-04-20T09:25:51.648Z</time>
      </trkpt>
      <trkpt lat="43.65235" lon="4.51446">
        <ele>0.33</ele>
        <time>2024-04-20T09:26:11.110Z</time>
      </trkpt>
      <trkpt lat="43.65226" lon="4.51417">
        <ele>1</ele>
        <time>2024-04-20T09:26:29.072Z</time>
      </trkpt>
      <trkpt lat="43.65218" lon="4.51388">
        <ele>-0.05</ele>
        <time>2024-04-20T09:26:47.475Z</time>
      </trkpt>
      <trkpt lat="43.65209" lon="4.51358">
        <ele>-0.02</ele>
        <time>2024-04-20T09:27:06.435Z</time>
      </trkpt>
      <trkpt lat="43.65199" lon="4.5133">
        <ele>1</ele>
        <time>2024-04-20T09:27:25.589Z</time>
      </trkpt>
      <trkpt lat="43.65189" lon="4.51302">
        <ele>-0.04</ele>
        <time>2024-04-20T09:27:44.175Z</time>
      </trkpt>
      <trkpt lat="43.6518" lon="4.51273">
        <ele>-0.07</ele>
        <time>2024-04-20T09:28:02.792Z</time>
      </trkpt>
      <trkpt lat="43.65171" lon="4.51245">
        <ele>0.04</ele>
        <time>2024-04-20T09:28:22.088Z</time>
      </trkpt>
      <trkpt lat="43.65162" lon="4.51216">
        <ele>0.42</ele>
        <time>2024-04-20T09:28:41.251Z</time>
      </trkpt>
      <trkpt lat="43.65153" lon="4.51187">
        <ele>0.8</ele>
        <time>2024-04-20T09:28:59.837Z</time>
      </trkpt>
      <trkpt lat="43.65142" lon="4.51159">
        <ele>0.84</ele>
        <time>2024-04-20T09:29:18.154Z</time>
      </trkpt>
      <trkpt lat="43.65135" lon="4.5113">
        <ele>0.85</ele>
        <time>2024-04-20T09:29:38.332Z</time>
      </trkpt>
      <trkpt lat="43.65126" lon="4.51101">
        <ele>1.1</ele>
        <time>2024-04-20T09:29:57.353Z</time>
      </trkpt>
      <trkpt lat="43.65116" lon="4.51072">
        <ele>1.33</ele>
        <time>2024-04-20T09:30:15.853Z</time>
      </trkpt>
      <trkpt lat="43.65108" lon="4.51044">
        <ele>0.96</ele>
        <time>2024-04-20T09:30:34.836Z</time>
      </trkpt>
      <trkpt lat="43.65098" lon="4.51015">
        <ele>0.26</ele>
        <time>2024-04-20T09:30:53.837Z</time>
      </trkpt>
      <trkpt lat="43.65088" lon="4.50986">
        <ele>-0.11</ele>
        <time>2024-04-20T09:31:13.274Z</time>
      </trkpt>
      <trkpt lat="43.65079" lon="4.50957">
        <ele>-0.12</ele>
        <time>2024-04-20T09:31:34.330Z</time>
      </trkpt>
      <trkpt lat="43.65071" lon="4.50929">
        <ele>-0.02</ele>
        <time>2024-04-20T09:31:53.531Z</time>
      </trkpt>
      <trkpt lat="43.65061" lon="4.50899">
        <time>2024-04-20T09:32:13.863Z</time>
      </trkpt>
      <trkpt lat="43.65052" lon="4.50871">
        <ele>1</ele>
        <time>2024-04-20T09:32:33.836Z</time>
      </trkpt>
      <trkpt lat="43.65041" lon="4.50842">
        <time>2024-04-20T09:33:43.838Z</time>
      </trkpt>
      <trkpt lat="43.65033" lon="4.50813">
        <ele>-0.03</ele>
        <time>2024-04-20T09:34:04.836Z</time>
      </trkpt>
      <trkpt lat="43.65023" lon="4.50785">
        <ele>-0.11</ele>
        <time>2024-04-20T09:34:27.528Z</time>
      </trkpt>
      <trkpt lat="43.65014" lon="4.50756">
        <ele>-0.09</ele>
        <time>2024-04-20T09:34:46.836Z</time>
      </trkpt>
      <trkpt lat="43.65005" lon="4.50727">
        <ele>0.18</ele>
        <time>2024-04-20T09:35:06.650Z</time>
      </trkpt>
      <trkpt lat="43.64995" lon="4.50699">
        <ele>0.58</ele>
        <time>2024-04-20T09:35:26.316Z</time>
      </trkpt>
      <trkpt lat="43.64986" lon="4.5067">
        <ele>0.91</ele>
        <time>2024-04-20T09:35:46.647Z</time>
      </trkpt>
      <trkpt lat="43.64978" lon="4.5064">
        <ele>1.16</ele>
        <time>2024-04-20T09:36:06.388Z</time>
      </trkpt>
      <trkpt lat="43.64969" lon="4.50611">
        <ele>1.31</ele>
        <time>2024-04-20T09:36:26.835Z</time>
      </trkpt>
      <trkpt lat="43.64965" lon="4.5058">
        <ele>1.33</ele>
        <time>2024-04-20T09:36:47.490Z</time>
      </trkpt>
      <trkpt lat="43.64966" lon="4.50549">
        <ele>1.15</ele>
        <time>2024-04-20T09:37:08.353Z</time>
      </trkpt>
      <trkpt lat="43.64965" lon="4.50517">
        <ele>0.79</ele>
        <time>2024-04-20T09:37:28.812Z</time>
      </trkpt>
      <trkpt lat="43.64966" lon="4.50486">
        <ele>0.65</ele>
        <time>2024-04-20T09:37:49.369Z</time>
      </trkpt>
      <trkpt lat="43.64968" lon="4.50455">
        <ele>0.68</ele>
        <time>2024-04-20T09:38:09.531Z</time>
      </trkpt>
      <trkpt lat="43.64969" lon="4.50423">
        <ele>0.73</ele>
        <time>2024-04-20T09:38:30.115Z</time>
      </trkpt>
      <trkpt lat="43.64972" lon="4.50392">
        <ele>0.8</ele>
        <time>2024-04-20T09:38:49.691Z</time>
      </trkpt>
      <trkpt lat="43.64974" lon="4.5036">
        <ele>0.87</ele>
        <time>2024-04-20T09:39:09.535Z</time>
      </trkpt>
      <trkpt lat="43.64979" lon="4.5033">
        <ele>0.85</ele>
        <time>2024-04-20T09:39:29.688Z</time>
      </trkpt>
      <trkpt lat="43.64988" lon="4.50301">
        <ele>0.58</ele>
        <time>2024-04-20T09:39:49.553Z</time>
      </trkpt>
      <trkpt lat="43.64997" lon="4.50271">
        <ele>0.19</ele>
        <time>2024-04-20T09:40:09.310Z</time>
      </trkpt>
      <trkpt lat="43.65009" lon="4.50245">
        <ele>0.05</ele>
        <time>2024-04-20T09:40:30.712Z</time>
      </trkpt>
      <trkpt lat="43.65023" lon="4.5022">
        <ele>0.19</ele>
        <time>2024-04-20T09:40:50.322Z</time>
      </trkpt>
      <trkpt lat="43.65038" lon="4.50197">
        <ele>0.44</ele>
        <time>2024-04-20T09:41:10.172Z</time>
      </trkpt>
      <trkpt lat="43.65054" lon="4.50174">
        <ele>0.72</ele>
        <time>2024-04-20T09:41:30.775Z</time>
      </trkpt>
      <trkpt lat="43.65069" lon="4.5015">
        <ele>0.94</ele>
        <time>2024-04-20T09:41:51.034Z</time>
      </trkpt>
      <trkpt lat="43.65084" lon="4.50127">
        <ele>1.06</ele>
        <time>2024-04-20T09:42:11.232Z</time>
      </trkpt>
      <trkpt lat="43.65097" lon="4.50101">
        <ele>0.99</ele>
        <time>2024-04-20T09:42:31.395Z</time>
      </trkpt>
      <trkpt lat="43.65112" lon="4.50076">
        <ele>0.75</ele>
        <time>2024-04-20T09:42:51.323Z</time>
      </trkpt>
      <trkpt lat="43.65127" lon="4.50053">
        <ele>0.55</ele>
        <time>2024-04-20T09:43:11.355Z</time>
      </trkpt>
      <trkpt lat="43.65142" lon="4.50029">
        <ele>0.65</ele>
        <time>2024-04-20T09:43:31.880Z</time>
      </trkpt>
      <trkpt lat="43.65156" lon="4.50005">
        <ele>0.93</ele>
        <time>2024-04-20T09:43:53.013Z</time>
      </trkpt>
      <trkpt lat="43.65171" lon="4.49981">
        <ele>1.08</ele>
        <time>2024-04-20T09:44:13.090Z</time>
      </trkpt>
      <trkpt lat="43.65185" lon="4.49956">
        <ele>1.01</ele>
        <time>2024-04-20T09:44:35.115Z</time>
      </trkpt>
      <trkpt lat="43.652" lon="4.49932">
        <ele>0.75</ele>
        <time>2024-04-20T09:44:55.373Z</time>
      </trkpt>
      <trkpt lat="43.65215" lon="4.49907">
        <ele>0.42</ele>
        <time>2024-04-20T09:45:16.188Z</time>
      </trkpt>
      <trkpt lat="43.65229" lon="4.49882">
        <ele>0.14</ele>
        <time>2024-04-20T09:45:35.715Z</time>
      </trkpt>
      <trkpt lat="43.65243" lon="4.49859">
        <ele>0.02</ele>
        <time>2024-04-20T09:45:55.552Z</time>
      </trkpt>
      <trkpt lat="43.65258" lon="4.49835">
        <ele>1</ele>
        <time>2024-04-20T09:46:15.628Z</time>
      </trkpt>
      <trkpt lat="43.65272" lon="4.4981">
        <ele>0.06</ele>
        <time>2024-04-20T09:46:36.596Z</time>
      </trkpt>
      <trkpt lat="43.65287" lon="4.49786">
        <ele>0.29</ele>
        <time>2024-04-20T09:46:56.211Z</time>
      </trkpt>
      <trkpt lat="43.65302" lon="4.49762">
        <ele>0.66</ele>
        <time>2024-04-20T09:47:16.315Z</time>
      </trkpt>
      <trkpt lat="43.65317" lon="4.49737">
        <ele>0.97</ele>
        <time>2024-04-20T09:47:36.390Z</time>
      </trkpt>
      <trkpt lat="43.65332" lon="4.49713">
        <ele>1.12</ele>
        <time>2024-04-20T09:47:56.572Z</time>
      </trkpt>
      <trkpt lat="43.65347" lon="4.4969">
        <ele>1.03</ele>
        <time>2024-04-20T09:48:16.197Z</time>
      </trkpt>
      <trkpt lat="43.6536" lon="4.49664">
        <ele>0.78</ele>
        <time>2024-04-20T09:48:36.396Z</time>
      </trkpt>
      <trkpt lat="43.65375" lon="4.49641">
        <ele>0.51</ele>
        <time>2024-04-20T09:48:56.751Z</time>
      </trkpt>
      <trkpt lat="43.65385" lon="4.49612">
        <ele>0.51</ele>
        <time>2024-04-20T09:49:17.842Z</time>
      </trkpt>
      <trkpt lat="43.65407" lon="4.49603">
        <ele>0.76</ele>
        <time>2024-04-20T09:49:51.714Z</time>
      </trkpt>
      <trkpt lat="43.65392" lon="4.49579">
        <ele>0.74</ele>
        <time>2024-04-20T09:52:49.334Z</time>
      </trkpt>
      <trkpt lat="43.65403" lon="4.49552">
        <ele>0.98</ele>
        <time>2024-04-20T09:53:09.411Z</time>
      </trkpt>
      <trkpt lat="43.65412" lon="4.49522">
        <ele>1.02</ele>
        <time>2024-04-20T09:53:29.728Z</time>
      </trkpt>
      <trkpt lat="43.65423" lon="4.49495">
        <ele>1</ele>
        <time>2024-04-20T09:53:51.812Z</time>
      </trkpt>
      <trkpt lat="43.65428" lon="4.49464">
        <ele>1</ele>
        <time>2024-04-20T09:54:12.675Z</time>
      </trkpt>
      <trkpt lat="43.65438" lon="4.49436">
        <ele>1</ele>
        <time>2024-04-20T09:54:33.835Z</time>
      </trkpt>
      <trkpt lat="43.65448" lon="4.49408">
        <ele>1</ele>
        <time>2024-04-20T09:54:54.229Z</time>
      </trkpt>
      <trkpt lat="43.65456" lon="4.49378">
        <ele>1</ele>
        <time>2024-04-20T09:55:14.834Z</time>
      </trkpt>
      <trkpt lat="43.65457" lon="4.49347">
        <ele>1</ele>
        <time>2024-04-20T09:55:34.774Z</time>
      </trkpt>
      <trkpt lat="43.65452" lon="4.49316">
        <ele>1</ele>
        <time>2024-04-20T09:55:53.834Z</time>
      </trkpt>
      <trkpt lat="43.65444" lon="4.49287">
        <ele>1</ele>
        <time>2024-04-20T09:56:13.429Z</time>
      </trkpt>
      <trkpt lat="43.65437" lon="4.49257">
        <ele>1</ele>
        <time>2024-04-20T09:56:31.794Z</time>
      </trkpt>
      <trkpt lat="43.65428" lon="4.49229">
        <ele>1</ele>
        <time>2024-04-20T09:56:51.151Z</time>
      </trkpt>
      <trkpt lat="43.65417" lon="4.49201">
        <ele>1</ele>
        <time>2024-04-20T09:57:10.535Z</time>
      </trkpt>
      <trkpt lat="43.65401" lon="4.49179">
        <ele>1.01</ele>
        <time>2024-04-20T09:57:29.534Z</time>
      </trkpt>
      <trkpt lat="43.65383" lon="4.49159">
        <ele>0.99</ele>
        <time>2024-04-20T09:57:49.256Z</time>
      </trkpt>
      <trkpt lat="43.65365" lon="4.49139">
        <ele>0.96</ele>
        <time>2024-04-20T09:58:08.448Z</time>
      </trkpt>
      <trkpt lat="43.65347" lon="4.49119">
        <ele>0.95</ele>
        <time>2024-04-20T09:58:27.736Z</time>
      </trkpt>
      <trkpt lat="43.65331" lon="4.49097">
        <ele>1.01</ele>
        <time>2024-04-20T09:58:47.131Z</time>
      </trkpt>
      <trkpt lat="43.65315" lon="4.49074">
        <ele>1.19</ele>
        <time>2024-04-20T09:59:06.053Z</time>
      </trkpt>
      <trkpt lat="43.65298" lon="4.49052">
        <ele>1.32</ele>
        <time>2024-04-20T09:59:26.254Z</time>
      </trkpt>
      <trkpt lat="43.65282" lon="4.49031">
        <ele>1.28</ele>
        <time>2024-04-20T09:59:46.350Z</time>
      </trkpt>
      <trkpt lat="43.65266" lon="4.49008">
        <ele>1.06</ele>
        <time>2024-04-20T10:00:05.052Z</time>
      </trkpt>
      <trkpt lat="43.65252" lon="4.48984">
        <ele>0.94</ele>
        <time>2024-04-20T10:00:24.320Z</time>
      </trkpt>
      <trkpt lat="43.65236" lon="4.48962">
        <ele>0.94</ele>
        <time>2024-04-20T10:00:43.647Z</time>
      </trkpt>
      <trkpt lat="43.6522" lon="4.48938">
        <ele>0.98</ele>
        <time>2024-04-20T10:01:03.550Z</time>
      </trkpt>
      <trkpt lat="43.65205" lon="4.48915">
        <ele>1</ele>
        <time>2024-04-20T10:01:22.195Z</time>
      </trkpt>
      <trkpt lat="43.65191" lon="4.48889">
        <ele>1</ele>
        <time>2024-04-20T10:01:40.493Z</time>
      </trkpt>
      <trkpt lat="43.65178" lon="4.48863">
        <ele>1</ele>
        <time>2024-04-20T10:01:59.553Z</time>
      </trkpt>
      <trkpt lat="43.65167" lon="4.48835">
        <ele>1</ele>
        <time>2024-04-20T10:02:19.714Z</time>
      </trkpt>
      <trkpt lat="43.65156" lon="4.48808">
        <ele>0.97</ele>
        <time>2024-04-20T10:02:39.416Z</time>
      </trkpt>
      <trkpt lat="43.65144" lon="4.48782">
        <ele>0.92</ele>
        <time>2024-04-20T10:02:58.272Z</time>
      </trkpt>
      <trkpt lat="43.65132" lon="4.48755">
        <ele>0.97</ele>
        <time>2024-04-20T10:03:17.790Z</time>
      </trkpt>
      <trkpt lat="43.65121" lon="4.48727">
        <ele>1.26</ele>
        <time>2024-04-20T10:03:37.636Z</time>
      </trkpt>
      <trkpt lat="43.65135" lon="4.48703">
        <ele>1.65</ele>
        <time>2024-04-20T10:04:16.250Z</time>
      </trkpt>
      <trkpt lat="43.65156" lon="4.48688">
        <ele>1.84</ele>
        <time>2024-04-20T10:04:46.632Z</time>
      </trkpt>
      <trkpt lat="43.65176" lon="4.48674">
        <ele>1.86</ele>
        <time>2024-04-20T10:05:06.152Z</time>
      </trkpt>
      <trkpt lat="43.65196" lon="4.48659">
        <ele>1.69</ele>
        <time>2024-04-20T10:05:26.257Z</time>
      </trkpt>
      <trkpt lat="43.65216" lon="4.48644">
        <ele>1.5</ele>
        <time>2024-04-20T10:05:46.131Z</time>
      </trkpt>
      <trkpt lat="43.65237" lon="4.4863">
        <ele>1.47</ele>
        <time>2024-04-20T10:06:06.591Z</time>
      </trkpt>
      <trkpt lat="43.65258" lon="4.48617">
        <ele>1.63</ele>
        <time>2024-04-20T10:06:26.935Z</time>
      </trkpt>
      <trkpt lat="43.65279" lon="4.48604">
        <ele>1.9</ele>
        <time>2024-04-20T10:06:47.413Z</time>
      </trkpt>
      <trkpt lat="43.653" lon="4.48592">
        <ele>2.05</ele>
        <time>2024-04-20T10:07:06.089Z</time>
      </trkpt>
      <trkpt lat="43.65321" lon="4.48578">
        <ele>2.06</ele>
        <time>2024-04-20T10:07:26.251Z</time>
      </trkpt>
      <trkpt lat="43.65341" lon="4.48563">
        <ele>1.95</ele>
        <time>2024-04-20T10:07:45.490Z</time>
      </trkpt>
      <trkpt lat="43.6536" lon="4.48547">
        <ele>1.83</ele>
        <time>2024-04-20T10:08:05.969Z</time>
      </trkpt>
      <trkpt lat="43.65379" lon="4.48529">
        <ele>1.82</ele>
        <time>2024-04-20T10:08:26.834Z</time>
      </trkpt>
      <trkpt lat="43.65398" lon="4.48511">
        <ele>1.92</ele>
        <time>2024-04-20T10:08:47.648Z</time>
      </trkpt>
      <trkpt lat="43.65416" lon="4.48492">
        <ele>2.04</ele>
        <time>2024-04-20T10:09:09.991Z</time>
      </trkpt>
      <trkpt lat="43.65432" lon="4.48469">
        <ele>2.09</ele>
        <time>2024-04-20T10:09:31.835Z</time>
      </trkpt>
      <trkpt lat="43.65448" lon="4.48447">
        <ele>2.06</ele>
        <time>2024-04-20T10:09:52.572Z</time>
      </trkpt>
      <trkpt lat="43.65464" lon="4.48424">
        <ele>2.01</ele>
        <time>2024-04-20T10:10:13.772Z</time>
      </trkpt>
      <trkpt lat="43.6548" lon="4.48403">
        <ele>2</ele>
        <time>2024-04-20T10:10:33.654Z</time>
      </trkpt>
      <trkpt lat="43.65497" lon="4.48381">
        <ele>2</ele>
        <time>2024-04-20T10:10:54.229Z</time>
      </trkpt>
      <trkpt lat="43.65513" lon="4.48359">
        <ele>2.02</ele>
        <time>2024-04-20T10:11:14.132Z</time>
      </trkpt>
      <trkpt lat="43.65529" lon="4.48337">
        <ele>2.01</ele>
        <time>2024-04-20T10:11:34.727Z</time>
      </trkpt>
      <trkpt lat="43.65547" lon="4.48317">
        <ele>1.91</ele>
        <time>2024-04-20T10:11:54.774Z</time>
      </trkpt>
      <trkpt lat="43.65563" lon="4.48295">
        <ele>1.61</ele>
        <time>2024-04-20T10:12:15.754Z</time>
      </trkpt>
      <trkpt lat="43.65579" lon="4.48273">
        <ele>1.23</ele>
        <time>2024-04-20T10:12:36.834Z</time>
      </trkpt>
      <trkpt lat="43.65597" lon="4.48253">
        <ele>1.09</ele>
        <time>2024-04-20T10:13:02.387Z</time>
      </trkpt>
      <trkpt lat="43.65614" lon="4.48231">
        <ele>1.28</ele>
        <time>2024-04-20T10:13:25.249Z</time>
      </trkpt>
      <trkpt lat="43.65634" lon="4.48217">
        <ele>1.68</ele>
        <time>2024-04-20T10:13:47.834Z</time>
      </trkpt>
      <trkpt lat="43.65655" lon="4.48205">
        <ele>1.99</ele>
        <time>2024-04-20T10:14:12.749Z</time>
      </trkpt>
      <trkpt lat="43.65677" lon="4.48195">
        <ele>2.09</ele>
        <time>2024-04-20T10:16:23.313Z</time>
      </trkpt>
      <trkpt lat="43.65699" lon="4.48186">
        <ele>2.05</ele>
        <time>2024-04-20T10:16:44.359Z</time>
      </trkpt>
      <trkpt lat="43.6572" lon="4.48174">
        <ele>2.02</ele>
        <time>2024-04-20T10:17:05.636Z</time>
      </trkpt>
      <trkpt lat="43.65741" lon="4.48161">
        <ele>2.03</ele>
        <time>2024-04-20T10:17:26.537Z</time>
      </trkpt>
      <trkpt lat="43.65761" lon="4.48147">
        <ele>2.11</ele>
        <time>2024-04-20T10:17:47.133Z</time>
      </trkpt>
      <trkpt lat="43.65782" lon="4.48132">
        <ele>2.19</ele>
        <time>2024-04-20T10:18:08.476Z</time>
      </trkpt>
      <trkpt lat="43.65801" lon="4.48114">
        <ele>2.21</ele>
        <time>2024-04-20T10:18:29.232Z</time>
      </trkpt>
      <trkpt lat="43.6582" lon="4.48097">
        <ele>2.14</ele>
        <time>2024-04-20T10:18:49.557Z</time>
      </trkpt>
      <trkpt lat="43.65837" lon="4.48076">
        <ele>1.89</ele>
        <time>2024-04-20T10:19:11.776Z</time>
      </trkpt>
      <trkpt lat="43.65856" lon="4.48059">
        <ele>1.59</ele>
        <time>2024-04-20T10:19:39.833Z</time>
      </trkpt>
      <trkpt lat="43.6587" lon="4.48033">
        <ele>1.27</ele>
        <time>2024-04-20T10:20:03.474Z</time>
      </trkpt>
      <trkpt lat="43.65885" lon="4.4801">
        <ele>1.34</ele>
        <time>2024-04-20T10:20:27.555Z</time>
      </trkpt>
      <trkpt lat="43.659" lon="4.47985">
        <ele>1.54</ele>
        <time>2024-04-20T10:20:50.138Z</time>
      </trkpt>
      <trkpt lat="43.65914" lon="4.47961">
        <ele>1.51</ele>
        <time>2024-04-20T10:21:12.133Z</time>
      </trkpt>
      <trkpt lat="43.65927" lon="4.47935">
        <ele>1.31</ele>
        <time>2024-04-20T10:21:32.480Z</time>
      </trkpt>
      <trkpt lat="43.65939" lon="4.47909">
        <ele>1.29</ele>
        <time>2024-04-20T10:21:53.133Z</time>
      </trkpt>
      <trkpt lat="43.6595" lon="4.47881">
        <ele>1.44</ele>
        <time>2024-04-20T10:22:14.859Z</time>
      </trkpt>
      <trkpt lat="43.65961" lon="4.47854">
        <ele>1.65</ele>
        <time>2024-04-20T10:22:36.395Z</time>
      </trkpt>
      <trkpt lat="43.65972" lon="4.47826">
        <ele>1.81</ele>
        <time>2024-04-20T10:22:59.833Z</time>
      </trkpt>
      <trkpt lat="43.65988" lon="4.47805">
        <ele>1.96</ele>
        <time>2024-04-20T10:23:31.373Z</time>
      </trkpt>
      <trkpt lat="43.65994" lon="4.47774">
        <ele>1.99</ele>
        <time>2024-04-20T10:24:34.354Z</time>
      </trkpt>
      <trkpt lat="43.66003" lon="4.47746">
        <ele>2</ele>
        <time>2024-04-20T10:24:55.832Z</time>
      </trkpt>
      <trkpt lat="43.66015" lon="4.4772">
        <ele>1.95</ele>
        <time>2024-04-20T10:25:16.412Z</time>
      </trkpt>
      <trkpt lat="43.66015" lon="4.47688">
        <ele>1.98</ele>
        <time>2024-04-20T10:25:44.833Z</time>
      </trkpt>
      <trkpt lat="43.66001" lon="4.47663">
        <ele>1.97</ele>
        <time>2024-04-20T10:26:28.534Z</time>
      </trkpt>
      <trkpt lat="43.65981" lon="4.47635">
        <ele>1.54</ele>
        <time>2024-04-20T10:41:21.881Z</time>
      </trkpt>
      <trkpt lat="43.66001" lon="4.47654">
        <ele>1.89</ele>
        <time>2024-04-20T10:44:51.850Z</time>
      </trkpt>
      <trkpt lat="43.66013" lon="4.47681">
        <ele>1.99</ele>
        <time>2024-04-20T11:37:43.023Z</time>
      </trkpt>
      <trkpt lat="43.66032" lon="4.47663">
        <ele>1.71</ele>
        <time>2024-04-20T11:38:15.719Z</time>
      </trkpt>
      <trkpt lat="43.66048" lon="4.4764">
        <ele>1.55</ele>
        <time>2024-04-20T11:38:38.827Z</time>
      </trkpt>
      <trkpt lat="43.66063" lon="4.47616">
        <ele>1.7</ele>
        <time>2024-04-20T11:39:00.641Z</time>
      </trkpt>
      <trkpt lat="43.66078" lon="4.47593">
        <ele>1.96</ele>
        <time>2024-04-20T11:39:21.320Z</time>
      </trkpt>
      <trkpt lat="43.66093" lon="4.47569">
        <ele>1.9</ele>
        <time>2024-04-20T11:39:41.827Z</time>
      </trkpt>
      <trkpt lat="43.66108" lon="4.47546">
        <ele>1.49</ele>
        <time>2024-04-20T11:40:02.362Z</time>
      </trkpt>
      <trkpt lat="43.66124" lon="4.47524">
        <ele>1.1</ele>
        <time>2024-04-20T11:40:22.082Z</time>
      </trkpt>
      <trkpt lat="43.66139" lon="4.47501">
        <ele>0.93</ele>
        <time>2024-04-20T11:40:43.040Z</time>
      </trkpt>
      <trkpt lat="43.66154" lon="4.47476">
        <ele>0.91</ele>
        <time>2024-04-20T11:41:02.663Z</time>
      </trkpt>
      <trkpt lat="43.66168" lon="4.47452">
        <ele>0.94</ele>
        <time>2024-04-20T11:41:23.381Z</time>
      </trkpt>
      <trkpt lat="43.66183" lon="4.47429">
        <ele>1.12</ele>
        <time>2024-04-20T11:41:44.166Z</time>
      </trkpt>
      <trkpt lat="43.66198" lon="4.47405">
        <ele>1.48</ele>
        <time>2024-04-20T11:42:04.828Z</time>
      </trkpt>
      <trkpt lat="43.66214" lon="4.47382">
        <ele>1.9</ele>
        <time>2024-04-20T11:42:25.785Z</time>
      </trkpt>
      <trkpt lat="43.66229" lon="4.47358">
        <ele>2.12</ele>
        <time>2024-04-20T11:42:52.822Z</time>
      </trkpt>
      <trkpt lat="43.66246" lon="4.47336">
        <ele>2.04</ele>
        <time>2024-04-20T11:43:13.839Z</time>
      </trkpt>
      <trkpt lat="43.66261" lon="4.47313">
        <ele>1.72</ele>
        <time>2024-04-20T11:43:34.038Z</time>
      </trkpt>
      <trkpt lat="43.66277" lon="4.47291">
        <ele>1.3</ele>
        <time>2024-04-20T11:43:53.624Z</time>
      </trkpt>
      <trkpt lat="43.66295" lon="4.47271">
        <ele>1.03</ele>
        <time>2024-04-20T11:44:17.703Z</time>
      </trkpt>
      <trkpt lat="43.66309" lon="4.47245">
        <ele>1.02</ele>
        <time>2024-04-20T11:44:36.538Z</time>
      </trkpt>
      <trkpt lat="43.66324" lon="4.47222">
        <ele>1.33</ele>
        <time>2024-04-20T11:44:55.826Z</time>
      </trkpt>
      <trkpt lat="43.6634" lon="4.47199">
        <ele>1.7</ele>
        <time>2024-04-20T11:45:14.564Z</time>
      </trkpt>
      <trkpt lat="43.66355" lon="4.47176">
        <ele>1.82</ele>
        <time>2024-04-20T11:45:32.824Z</time>
      </trkpt>
      <trkpt lat="43.66371" lon="4.47153">
        <ele>1.65</ele>
        <time>2024-04-20T11:45:50.737Z</time>
      </trkpt>
      <trkpt lat="43.66386" lon="4.47129">
        <ele>1.56</ele>
        <time>2024-04-20T11:46:10.844Z</time>
      </trkpt>
      <trkpt lat="43.664" lon="4.47104">
        <ele>1.77</ele>
        <time>2024-04-20T11:46:30.137Z</time>
      </trkpt>
      <trkpt lat="43.66412" lon="4.47078">
        <ele>2.02</ele>
        <time>2024-04-20T11:46:49.385Z</time>
      </trkpt>
      <trkpt lat="43.66424" lon="4.47051">
        <ele>2.06</ele>
        <time>2024-04-20T11:47:09.259Z</time>
      </trkpt>
      <trkpt lat="43.66434" lon="4.47023">
        <ele>1.92</ele>
        <time>2024-04-20T11:47:29.381Z</time>
      </trkpt>
      <trkpt lat="43.66444" lon="4.46995">
        <ele>1.74</ele>
        <time>2024-04-20T11:47:48.467Z</time>
      </trkpt>
      <trkpt lat="43.66454" lon="4.46966">
        <ele>1.56</ele>
        <time>2024-04-20T11:48:07.523Z</time>
      </trkpt>
      <trkpt lat="43.66463" lon="4.46937">
        <ele>1.36</ele>
        <time>2024-04-20T11:48:27.463Z</time>
      </trkpt>
      <trkpt lat="43.66471" lon="4.46908">
        <ele>1.26</ele>
        <time>2024-04-20T11:48:47.038Z</time>
      </trkpt>
      <trkpt lat="43.6648" lon="4.46879">
        <ele>1.43</ele>
        <time>2024-04-20T11:49:06.661Z</time>
      </trkpt>
      <trkpt lat="43.66489" lon="4.46851">
        <ele>1.8</ele>
        <time>2024-04-20T11:49:25.476Z</time>
      </trkpt>
      <trkpt lat="43.66497" lon="4.46822">
        <ele>2.05</ele>
        <time>2024-04-20T11:49:44.827Z</time>
      </trkpt>
      <trkpt lat="43.66507" lon="4.46793">
        <ele>2.02</ele>
        <time>2024-04-20T11:50:04.845Z</time>
      </trkpt>
      <trkpt lat="43.66516" lon="4.46764">
        <ele>1.84</ele>
        <time>2024-04-20T11:50:24.519Z</time>
      </trkpt>
      <trkpt lat="43.66525" lon="4.46736">
        <ele>1.79</ele>
        <time>2024-04-20T11:50:43.825Z</time>
      </trkpt>
      <trkpt lat="43.66534" lon="4.46707">
        <ele>2.03</ele>
        <time>2024-04-20T11:51:03.141Z</time>
      </trkpt>
      <trkpt lat="43.66543" lon="4.46678">
        <ele>2.49</ele>
        <time>2024-04-20T11:51:22.265Z</time>
      </trkpt>
      <trkpt lat="43.66549" lon="4.46649">
        <ele>2.67</ele>
        <time>2024-04-20T11:51:41.226Z</time>
      </trkpt>
      <trkpt lat="43.66562" lon="4.46622">
        <ele>2.51</ele>
        <time>2024-04-20T11:52:01.839Z</time>
      </trkpt>
      <trkpt lat="43.66573" lon="4.46595">
        <ele>2.12</ele>
        <time>2024-04-20T11:52:21.829Z</time>
      </trkpt>
      <trkpt lat="43.66581" lon="4.46565">
        <ele>1.93</ele>
        <time>2024-04-20T11:52:41.441Z</time>
      </trkpt>
      <trkpt lat="43.6659" lon="4.46537">
        <ele>1.95</ele>
        <time>2024-04-20T11:53:01.238Z</time>
      </trkpt>
      <trkpt lat="43.666" lon="4.46508">
        <ele>2</ele>
        <time>2024-04-20T11:53:22.828Z</time>
      </trkpt>
      <trkpt lat="43.66609" lon="4.46478">
        <ele>2</ele>
        <time>2024-04-20T11:53:43.558Z</time>
      </trkpt>
      <trkpt lat="43.66617" lon="4.4645">
        <ele>2</ele>
        <time>2024-04-20T11:54:03.106Z</time>
      </trkpt>
      <trkpt lat="43.66627" lon="4.46421">
        <ele>2</ele>
        <time>2024-04-20T11:54:22.084Z</time>
      </trkpt>
      <trkpt lat="43.66637" lon="4.46392">
        <ele>2</ele>
        <time>2024-04-20T11:54:41.180Z</time>
      </trkpt>
      <trkpt lat="43.66646" lon="4.46364">
        <ele>2</ele>
        <time>2024-04-20T11:54:59.527Z</time>
      </trkpt>
      <trkpt lat="43.66655" lon="4.46335">
        <ele>2</ele>
        <time>2024-04-20T11:55:18.362Z</time>
      </trkpt>
      <trkpt lat="43.66665" lon="4.46307">
        <ele>2</ele>
        <time>2024-04-20T11:55:36.581Z</time>
      </trkpt>
      <trkpt lat="43.66675" lon="4.46279">
        <ele>1.98</ele>
        <time>2024-04-20T11:55:53.718Z</time>
      </trkpt>
      <trkpt lat="43.66685" lon="4.4625">
        <ele>1.94</ele>
        <time>2024-04-20T11:56:11.848Z</time>
      </trkpt>
      <trkpt lat="43.66696" lon="4.46222">
        <ele>1.87</ele>
        <time>2024-04-20T11:56:30.121Z</time>
      </trkpt>
      <trkpt lat="43.66704" lon="4.46193">
        <ele>1.79</ele>
        <time>2024-04-20T11:56:49.506Z</time>
      </trkpt>
      <trkpt lat="43.66713" lon="4.46164">
        <ele>1.81</ele>
        <time>2024-04-20T11:57:08.866Z</time>
      </trkpt>
      <trkpt lat="43.66723" lon="4.46136">
        <ele>2</ele>
        <time>2024-04-20T11:57:27.138Z</time>
      </trkpt>
      <trkpt lat="43.66732" lon="4.46106">
        <ele>2.42</ele>
        <time>2024-04-20T11:57:45.800Z</time>
      </trkpt>
      <trkpt lat="43.6674" lon="4.46076">
        <ele>3.28</ele>
        <time>2024-04-20T11:58:04.828Z</time>
      </trkpt>
      <trkpt lat="43.66743" lon="4.46045">
        <ele>5.15</ele>
        <time>2024-04-20T11:58:23.797Z</time>
      </trkpt>
      <trkpt lat="43.6674" lon="4.46014">
        <ele>6.77</ele>
        <time>2024-04-20T11:58:42.384Z</time>
      </trkpt>
      <trkpt lat="43.66736" lon="4.45983">
        <ele>6.58</ele>
        <time>2024-04-20T11:59:03.828Z</time>
      </trkpt>
      <trkpt lat="43.66731" lon="4.45952">
        <ele>4.85</ele>
        <time>2024-04-20T11:59:31.265Z</time>
      </trkpt>
      <trkpt lat="43.66724" lon="4.45922">
        <ele>3.35</ele>
        <time>2024-04-20T12:00:02.828Z</time>
      </trkpt>
      <trkpt lat="43.66712" lon="4.45895">
        <ele>3.15</ele>
        <time>2024-04-20T12:01:57.222Z</time>
      </trkpt>
      <trkpt lat="43.66701" lon="4.45868">
        <ele>3.47</ele>
        <time>2024-04-20T12:02:18.182Z</time>
      </trkpt>
      <trkpt lat="43.66691" lon="4.45839">
        <ele>3.85</ele>
        <time>2024-04-20T12:02:40.244Z</time>
      </trkpt>
      <trkpt lat="43.66681" lon="4.4581">
        <ele>4.37</ele>
        <time>2024-04-20T12:03:00.724Z</time>
      </trkpt>
      <trkpt lat="43.66672" lon="4.45782">
        <ele>5.24</ele>
        <time>2024-04-20T12:03:42.181Z</time>
      </trkpt>
      <trkpt lat="43.66662" lon="4.45754">
        <ele>5.99</ele>
        <time>2024-04-20T12:04:02.258Z</time>
      </trkpt>
      <trkpt lat="43.66653" lon="4.45725">
        <ele>6.31</ele>
        <time>2024-04-20T12:04:23.141Z</time>
      </trkpt>
      <trkpt lat="43.66641" lon="4.45698">
        <ele>6.22</ele>
        <time>2024-04-20T12:04:42.246Z</time>
      </trkpt>
      <trkpt lat="43.66629" lon="4.45672">
        <ele>5.67</ele>
        <time>2024-04-20T12:05:02.438Z</time>
      </trkpt>
      <trkpt lat="43.6661" lon="4.45655">
        <ele>4.74</ele>
        <time>2024-04-20T12:05:20.679Z</time>
      </trkpt>
      <trkpt lat="43.66588" lon="4.45648">
        <ele>4.13</ele>
        <time>2024-04-20T12:05:38.959Z</time>
      </trkpt>
      <trkpt lat="43.66565" lon="4.45644">
        <ele>3.87</ele>
        <time>2024-04-20T12:05:57.200Z</time>
      </trkpt>
      <trkpt lat="43.66543" lon="4.45633">
        <ele>3.74</ele>
        <time>2024-04-20T12:06:16.827Z</time>
      </trkpt>
      <trkpt lat="43.66531" lon="4.45606">
        <ele>3.95</ele>
        <time>2024-04-20T12:06:37.525Z</time>
      </trkpt>
      <trkpt lat="43.66525" lon="4.45575">
        <ele>4.25</ele>
        <time>2024-04-20T12:06:57.745Z</time>
      </trkpt>
      <trkpt lat="43.6653" lon="4.45544">
        <ele>4.53</ele>
        <time>2024-04-20T12:07:18.599Z</time>
      </trkpt>
      <trkpt lat="43.66538" lon="4.45515">
        <ele>4.73</ele>
        <time>2024-04-20T12:07:39.827Z</time>
      </trkpt>
      <trkpt lat="43.66535" lon="4.45484">
        <ele>4.89</ele>
        <time>2024-04-20T12:07:59.423Z</time>
      </trkpt>
      <trkpt lat="43.66516" lon="4.45466">
        <ele>5.65</ele>
        <time>2024-04-20T12:08:17.040Z</time>
      </trkpt>
      <trkpt lat="43.66499" lon="4.45444">
        <ele>6.62</ele>
        <time>2024-04-20T12:09:11.619Z</time>
      </trkpt>
      <trkpt lat="43.66476" lon="4.45445">
        <ele>6.2</ele>
        <time>2024-04-20T12:09:35.164Z</time>
      </trkpt>
      <trkpt lat="43.66485" lon="4.45415">
        <ele>6.83</ele>
        <time>2024-04-20T12:10:07.785Z</time>
      </trkpt>
      <trkpt lat="43.66502" lon="4.45396">
        <ele>6.8</ele>
        <time>2024-04-20T12:10:29.321Z</time>
      </trkpt>
      <trkpt lat="43.66519" lon="4.45375">
        <ele>5.48</ele>
        <time>2024-04-20T12:10:48.177Z</time>
      </trkpt>
      <trkpt lat="43.66536" lon="4.45354">
        <ele>3.43</ele>
        <time>2024-04-20T12:11:07.822Z</time>
      </trkpt>
      <trkpt lat="43.66552" lon="4.45331">
        <ele>1.52</ele>
        <time>2024-04-20T12:11:27.264Z</time>
      </trkpt>
      <trkpt lat="43.6657" lon="4.45311">
        <ele>0.18</ele>
        <time>2024-04-20T12:11:47.157Z</time>
      </trkpt>
      <trkpt lat="43.66586" lon="4.4529">
        <ele>-0.26</ele>
        <time>2024-04-20T12:12:06.464Z</time>
      </trkpt>
      <trkpt lat="43.66603" lon="4.45268">
        <ele>0.05</ele>
        <time>2024-04-20T12:12:24.803Z</time>
      </trkpt>
      <trkpt lat="43.6662" lon="4.45247">
        <ele>0.93</ele>
        <time>2024-04-20T12:12:44.657Z</time>
      </trkpt>
      <trkpt lat="43.66637" lon="4.45228">
        <ele>2.76</ele>
        <time>2024-04-20T12:13:05.244Z</time>
      </trkpt>
      <trkpt lat="43.66654" lon="4.45206">
        <ele>5.41</ele>
        <time>2024-04-20T12:13:24.801Z</time>
      </trkpt>
      <trkpt lat="43.66669" lon="4.45183">
        <ele>7.47</ele>
        <time>2024-04-20T12:13:45.502Z</time>
      </trkpt>
      <trkpt lat="43.66692" lon="4.45184">
        <ele>6.4</ele>
        <time>2024-04-20T12:15:29.313Z</time>
      </trkpt>
      <trkpt lat="43.66706" lon="4.45159">
        <ele>5.54</ele>
        <time>2024-04-20T12:15:50.378Z</time>
      </trkpt>
      <trkpt lat="43.6672" lon="4.45135">
        <ele>3.85</ele>
        <time>2024-04-20T12:16:10.826Z</time>
      </trkpt>
      <trkpt lat="43.66734" lon="4.4511">
        <ele>3</ele>
        <time>2024-04-20T12:16:30.799Z</time>
      </trkpt>
      <trkpt lat="43.66753" lon="4.45093">
        <ele>2.97</ele>
        <time>2024-04-20T12:16:51.059Z</time>
      </trkpt>
      <trkpt lat="43.66774" lon="4.45106">
        <ele>2.74</ele>
        <time>2024-04-20T12:17:11.163Z</time>
      </trkpt>
      <trkpt lat="43.66794" lon="4.45121">
        <ele>2.18</ele>
        <time>2024-04-20T12:17:31.067Z</time>
      </trkpt>
      <trkpt lat="43.66814" lon="4.45136">
        <ele>1.64</ele>
        <time>2024-04-20T12:17:50.624Z</time>
      </trkpt>
      <trkpt lat="43.66835" lon="4.45151">
        <ele>1.22</ele>
        <time>2024-04-20T12:18:10.384Z</time>
      </trkpt>
      <trkpt lat="43.66856" lon="4.45161">
        <ele>1.2</ele>
        <time>2024-04-20T12:18:29.720Z</time>
      </trkpt>
      <trkpt lat="43.66869" lon="4.45135">
        <ele>1.73</ele>
        <time>2024-04-20T12:18:52.676Z</time>
      </trkpt>
      <trkpt lat="43.66879" lon="4.45106">
        <ele>2.21</ele>
        <time>2024-04-20T12:19:15.423Z</time>
      </trkpt>
      <trkpt lat="43.66892" lon="4.45081">
        <ele>2.26</ele>
        <time>2024-04-20T12:19:35.320Z</time>
      </trkpt>
      <trkpt lat="43.66903" lon="4.45053">
        <ele>2.13</ele>
        <time>2024-04-20T12:19:54.742Z</time>
      </trkpt>
      <trkpt lat="43.66915" lon="4.45027">
        <ele>2.01</ele>
        <time>2024-04-20T12:20:14.626Z</time>
      </trkpt>
      <trkpt lat="43.66928" lon="4.45001">
        <ele>2.04</ele>
        <time>2024-04-20T12:20:35.124Z</time>
      </trkpt>
      <trkpt lat="43.66949" lon="4.44988">
        <ele>2.32</ele>
        <time>2024-04-20T12:20:59.185Z</time>
      </trkpt>
      <trkpt lat="43.6697" lon="4.45001">
        <ele>2.62</ele>
        <time>2024-04-20T12:21:17.621Z</time>
      </trkpt>
      <trkpt lat="43.66989" lon="4.45019">
        <ele>2.74</ele>
        <time>2024-04-20T12:21:38.321Z</time>
      </trkpt>
      <trkpt lat="43.67008" lon="4.45036">
        <ele>2.6</ele>
        <time>2024-04-20T12:21:57.562Z</time>
      </trkpt>
      <trkpt lat="43.67025" lon="4.45056">
        <ele>2.31</ele>
        <time>2024-04-20T12:22:16.484Z</time>
      </trkpt>
      <trkpt lat="43.67042" lon="4.45078">
        <ele>2.04</ele>
        <time>2024-04-20T12:22:36.378Z</time>
      </trkpt>
      <trkpt lat="43.67057" lon="4.45101">
        <ele>1.93</ele>
        <time>2024-04-20T12:22:58.310Z</time>
      </trkpt>
      <trkpt lat="43.67072" lon="4.45126">
        <ele>1.94</ele>
        <time>2024-04-20T12:23:19.701Z</time>
      </trkpt>
      <trkpt lat="43.67085" lon="4.45152">
        <ele>1.99</ele>
        <time>2024-04-20T12:23:39.825Z</time>
      </trkpt>
      <trkpt lat="43.67099" lon="4.45177">
        <ele>2</ele>
        <time>2024-04-20T12:23:59.257Z</time>
      </trkpt>
      <trkpt lat="43.67112" lon="4.45202">
        <ele>2</ele>
        <time>2024-04-20T12:24:19.564Z</time>
      </trkpt>
      <trkpt lat="43.67125" lon="4.45229">
        <ele>2</ele>
        <time>2024-04-20T12:24:42.825Z</time>
      </trkpt>
      <trkpt lat="43.67136" lon="4.45256">
        <ele>2</ele>
        <time>2024-04-20T12:25:25.163Z</time>
      </trkpt>
      <trkpt lat="43.67152" lon="4.45278">
        <ele>2</ele>
        <time>2024-04-20T12:25:47.825Z</time>
      </trkpt>
      <trkpt lat="43.67166" lon="4.45303">
        <ele>2</ele>
        <time>2024-04-20T12:26:09.741Z</time>
      </trkpt>
      <trkpt lat="43.67179" lon="4.45329">
        <ele>2</ele>
        <time>2024-04-20T12:26:29.387Z</time>
      </trkpt>
      <trkpt lat="43.67193" lon="4.45353">
        <ele>2</ele>
        <time>2024-04-20T12:26:49.826Z</time>
      </trkpt>
      <trkpt lat="43.67208" lon="4.45376">
        <ele>2</ele>
        <time>2024-04-20T12:27:09.740Z</time>
      </trkpt>
      <trkpt lat="43.67223" lon="4.454">
        <ele>2</ele>
        <time>2024-04-20T12:27:30.181Z</time>
      </trkpt>
      <trkpt lat="43.67236" lon="4.45427">
        <ele>2</ele>
        <time>2024-04-20T12:27:50.698Z</time>
      </trkpt>
      <trkpt lat="43.67251" lon="4.45451">
        <ele>2</ele>
        <time>2024-04-20T12:28:11.102Z</time>
      </trkpt>
      <trkpt lat="43.67265" lon="4.45475">
        <ele>2.02</ele>
        <time>2024-04-20T12:28:32.119Z</time>
      </trkpt>
      <trkpt lat="43.67281" lon="4.45497">
        <ele>2.05</ele>
        <time>2024-04-20T12:28:52.426Z</time>
      </trkpt>
      <trkpt lat="43.67297" lon="4.45519">
        <ele>1.94</ele>
        <time>2024-04-20T12:29:13.165Z</time>
      </trkpt>
      <trkpt lat="43.67312" lon="4.45542">
        <ele>1.58</ele>
        <time>2024-04-20T12:29:34.403Z</time>
      </trkpt>
      <trkpt lat="43.67327" lon="4.45567">
        <ele>1.13</ele>
        <time>2024-04-20T12:29:54.825Z</time>
      </trkpt>
      <trkpt lat="43.67341" lon="4.45592">
        <ele>0.99</ele>
        <time>2024-04-20T12:30:14.400Z</time>
      </trkpt>
      <trkpt lat="43.67355" lon="4.45617">
        <ele>1.28</ele>
        <time>2024-04-20T12:30:32.832Z</time>
      </trkpt>
      <trkpt lat="43.6737" lon="4.4564">
        <ele>1.72</ele>
        <time>2024-04-20T12:30:52.826Z</time>
      </trkpt>
      <trkpt lat="43.67391" lon="4.45652">
        <ele>1.93</ele>
        <time>2024-04-20T12:31:18.825Z</time>
      </trkpt>
      <trkpt lat="43.67398" lon="4.45622">
        <ele>1.47</ele>
        <time>2024-04-20T12:31:46.373Z</time>
      </trkpt>
      <trkpt lat="43.67394" lon="4.45591">
        <ele>1.02</ele>
        <time>2024-04-20T12:32:06.759Z</time>
      </trkpt>
      <trkpt lat="43.67392" lon="4.45559">
        <ele>0.96</ele>
        <time>2024-04-20T12:32:26.796Z</time>
      </trkpt>
      <trkpt lat="43.67388" lon="4.45528">
        <ele>1.16</ele>
        <time>2024-04-20T12:32:48.583Z</time>
      </trkpt>
      <trkpt lat="43.67385" lon="4.45497">
        <ele>1.36</ele>
        <time>2024-04-20T12:33:55.341Z</time>
      </trkpt>
      <trkpt lat="43.67381" lon="4.45466">
        <ele>1.45</ele>
        <time>2024-04-20T12:34:16.417Z</time>
      </trkpt>
      <trkpt lat="43.67377" lon="4.45435">
        <ele>1.47</ele>
        <time>2024-04-20T12:34:36.825Z</time>
      </trkpt>
      <trkpt lat="43.67374" lon="4.45404">
        <ele>1.52</ele>
        <time>2024-04-20T12:34:58.499Z</time>
      </trkpt>
      <trkpt lat="43.67369" lon="4.45373">
        <ele>1.58</ele>
        <time>2024-04-20T12:35:55.824Z</time>
      </trkpt>
      <trkpt lat="43.67376" lon="4.45343">
        <ele>1.48</ele>
        <time>2024-04-20T12:36:17.825Z</time>
      </trkpt>
      <trkpt lat="43.6739" lon="4.45318">
        <ele>1.28</ele>
        <time>2024-04-20T12:36:37.660Z</time>
      </trkpt>
      <trkpt lat="43.67404" lon="4.45294">
        <ele>1.1</ele>
        <time>2024-04-20T12:36:57.360Z</time>
      </trkpt>
      <trkpt lat="43.67419" lon="4.4527">
        <ele>0.99</ele>
        <time>2024-04-20T12:37:17.314Z</time>
      </trkpt>
      <trkpt lat="43.67434" lon="4.45245">
        <ele>0.94</ele>
        <time>2024-04-20T12:37:37.312Z</time>
      </trkpt>
      <trkpt lat="43.67448" lon="4.45221">
        <ele>0.93</ele>
        <time>2024-04-20T12:37:56.822Z</time>
      </trkpt>
      <trkpt lat="43.67463" lon="4.45197">
        <ele>0.94</ele>
        <time>2024-04-20T12:38:15.964Z</time>
      </trkpt>
      <trkpt lat="43.67477" lon="4.45173">
        <ele>0.97</ele>
        <time>2024-04-20T12:38:36.385Z</time>
      </trkpt>
      <trkpt lat="43.67492" lon="4.45148">
        <ele>1</ele>
        <time>2024-04-20T12:38:55.848Z</time>
      </trkpt>
      <trkpt lat="43.67506" lon="4.45124">
        <ele>1</ele>
        <time>2024-04-20T12:39:15.500Z</time>
      </trkpt>
      <trkpt lat="43.67521" lon="4.451">
        <ele>1</ele>
        <time>2024-04-20T12:39:35.807Z</time>
      </trkpt>
      <trkpt lat="43.67537" lon="4.45078">
        <ele>1</ele>
        <time>2024-04-20T12:39:55.824Z</time>
      </trkpt>
      <trkpt lat="43.67554" lon="4.45056">
        <ele>1.03</ele>
        <time>2024-04-20T12:40:15.640Z</time>
      </trkpt>
      <trkpt lat="43.67572" lon="4.45037">
        <ele>1.07</ele>
        <time>2024-04-20T12:40:36.025Z</time>
      </trkpt>
      <trkpt lat="43.6759" lon="4.45018">
        <ele>1.07</ele>
        <time>2024-04-20T12:40:56.206Z</time>
      </trkpt>
      <trkpt lat="43.67607" lon="4.44997">
        <ele>1.01</ele>
        <time>2024-04-20T12:41:16.324Z</time>
      </trkpt>
      <trkpt lat="43.67622" lon="4.44974">
        <ele>0.92</ele>
        <time>2024-04-20T12:41:35.264Z</time>
      </trkpt>
      <trkpt lat="43.67639" lon="4.44952">
        <ele>0.93</ele>
        <time>2024-04-20T12:41:54.637Z</time>
      </trkpt>
      <trkpt lat="43.67655" lon="4.4493">
        <ele>1.02</ele>
        <time>2024-04-20T12:42:16.184Z</time>
      </trkpt>
      <trkpt lat="43.67671" lon="4.44909">
        <ele>0.93</ele>
        <time>2024-04-20T12:42:37.940Z</time>
      </trkpt>
      <trkpt lat="43.67687" lon="4.44886">
        <ele>0.64</ele>
        <time>2024-04-20T12:42:58.063Z</time>
      </trkpt>
      <trkpt lat="43.67704" lon="4.44864">
        <ele>0.53</ele>
        <time>2024-04-20T12:43:17.641Z</time>
      </trkpt>
      <trkpt lat="43.67721" lon="4.44842">
        <ele>0.73</ele>
        <time>2024-04-20T12:43:38.063Z</time>
      </trkpt>
      <trkpt lat="43.67739" lon="4.44822">
        <ele>1</ele>
        <time>2024-04-20T12:43:58.503Z</time>
      </trkpt>
      <trkpt lat="43.67757" lon="4.44803">
        <ele>1.07</ele>
        <time>2024-04-20T12:44:19.386Z</time>
      </trkpt>
      <trkpt lat="43.67773" lon="4.4478">
        <ele>1.02</ele>
        <time>2024-04-20T12:44:40.257Z</time>
      </trkpt>
      <trkpt lat="43.67783" lon="4.44752">
        <ele>1.07</ele>
        <time>2024-04-20T12:44:58.961Z</time>
      </trkpt>
      <trkpt lat="43.67789" lon="4.44722">
        <ele>1.08</ele>
        <time>2024-04-20T12:45:19.383Z</time>
      </trkpt>
      <trkpt lat="43.67794" lon="4.44692">
        <ele>1.03</ele>
        <time>2024-04-20T12:45:39.766Z</time>
      </trkpt>
      <trkpt lat="43.67801" lon="4.44661">
        <ele>1</ele>
        <time>2024-04-20T12:46:19.245Z</time>
      </trkpt>
      <trkpt lat="43.67805" lon="4.4463">
        <ele>1</ele>
        <time>2024-04-20T12:46:39.319Z</time>
      </trkpt>
      <trkpt lat="43.67811" lon="4.44599">
        <ele>1</ele>
        <time>2024-04-20T12:46:59.262Z</time>
      </trkpt>
      <trkpt lat="43.67817" lon="4.44568">
        <ele>1</ele>
        <time>2024-04-20T12:47:18.578Z</time>
      </trkpt>
      <trkpt lat="43.67821" lon="4.44537">
        <ele>1</ele>
        <time>2024-04-20T12:47:37.823Z</time>
      </trkpt>
      <trkpt lat="43.67829" lon="4.44507">
        <ele>1</ele>
        <time>2024-04-20T12:47:57.500Z</time>
      </trkpt>
      <trkpt lat="43.67842" lon="4.44481">
        <ele>1</ele>
        <time>2024-04-20T12:48:17.499Z</time>
      </trkpt>
      <trkpt lat="43.67855" lon="4.44455">
        <ele>1</ele>
        <time>2024-04-20T12:48:37.566Z</time>
      </trkpt>
      <trkpt lat="43.6786" lon="4.44425">
        <ele>1</ele>
        <time>2024-04-20T12:48:56.498Z</time>
      </trkpt>
      <trkpt lat="43.67866" lon="4.44394">
        <ele>1</ele>
        <time>2024-04-20T12:49:16.642Z</time>
      </trkpt>
      <trkpt lat="43.67868" lon="4.44362">
        <ele>1</ele>
        <time>2024-04-20T12:49:37.581Z</time>
      </trkpt>
      <trkpt lat="43.67868" lon="4.4433">
        <ele>1</ele>
        <time>2024-04-20T12:49:57.744Z</time>
      </trkpt>
      <trkpt lat="43.67866" lon="4.44299">
        <ele>0.97</ele>
        <time>2024-04-20T12:50:18.357Z</time>
      </trkpt>
      <trkpt lat="43.67862" lon="4.44268">
        <ele>0.96</ele>
        <time>2024-04-20T12:50:37.799Z</time>
      </trkpt>
      <trkpt lat="43.67859" lon="4.44237">
        <ele>1.07</ele>
        <time>2024-04-20T12:50:57.222Z</time>
      </trkpt>
      <trkpt lat="43.67853" lon="4.44207">
        <ele>1.39</ele>
        <time>2024-04-20T12:51:16.798Z</time>
      </trkpt>
      <trkpt lat="43.67844" lon="4.44178">
        <ele>1.84</ele>
        <time>2024-04-20T12:51:36.586Z</time>
      </trkpt>
      <trkpt lat="43.67836" lon="4.44149">
        <ele>2.05</ele>
        <time>2024-04-20T12:51:56.200Z</time>
      </trkpt>
      <trkpt lat="43.67828" lon="4.44119">
        <ele>1.92</ele>
        <time>2024-04-20T12:52:15.383Z</time>
      </trkpt>
      <trkpt lat="43.67821" lon="4.44088">
        <ele>1.77</ele>
        <time>2024-04-20T12:52:36.640Z</time>
      </trkpt>
      <trkpt lat="43.67818" lon="4.44057">
        <ele>1.99</ele>
        <time>2024-04-20T12:52:56.845Z</time>
      </trkpt>
      <trkpt lat="43.67825" lon="4.44028">
        <ele>2.6</ele>
        <time>2024-04-20T12:53:55.527Z</time>
      </trkpt>
      <trkpt lat="43.67811" lon="4.44004">
        <ele>2.47</ele>
        <time>2024-04-20T12:54:25.612Z</time>
      </trkpt>
      <trkpt lat="43.67796" lon="4.43981">
        <ele>2.11</ele>
        <time>2024-04-20T12:55:47.380Z</time>
      </trkpt>
      <trkpt lat="43.67789" lon="4.43951">
        <ele>2.04</ele>
        <time>2024-04-20T12:56:19.822Z</time>
      </trkpt>
      <trkpt lat="43.67773" lon="4.43928">
        <ele>1.99</ele>
        <time>2024-04-20T12:56:58.158Z</time>
      </trkpt>
      <trkpt lat="43.67754" lon="4.43911">
        <ele>2.03</ele>
        <time>2024-04-20T12:57:26.838Z</time>
      </trkpt>
      <trkpt lat="43.67736" lon="4.43892">
        <ele>2.09</ele>
        <time>2024-04-20T12:57:49.823Z</time>
      </trkpt>
      <trkpt lat="43.67716" lon="4.43875">
        <ele>1.91</ele>
        <time>2024-04-20T12:58:12.344Z</time>
      </trkpt>
      <trkpt lat="43.67697" lon="4.43859">
        <ele>1.48</ele>
        <time>2024-04-20T12:58:35.160Z</time>
      </trkpt>
      <trkpt lat="43.67678" lon="4.43841">
        <ele>1.07</ele>
        <time>2024-04-20T12:58:57.426Z</time>
      </trkpt>
      <trkpt lat="43.67659" lon="4.43824">
        <ele>1.04</ele>
        <time>2024-04-20T12:59:20.778Z</time>
      </trkpt>
      <trkpt lat="43.67641" lon="4.43806">
        <ele>1.29</ele>
        <time>2024-04-20T12:59:43.746Z</time>
      </trkpt>
      <trkpt lat="43.67622" lon="4.43788">
        <ele>1.39</ele>
        <time>2024-04-20T13:00:07.098Z</time>
      </trkpt>
      <trkpt lat="43.67603" lon="4.43771">
        <ele>1.2</ele>
        <time>2024-04-20T13:00:29.681Z</time>
      </trkpt>
      <trkpt lat="43.67584" lon="4.43753">
        <ele>1</ele>
        <time>2024-04-20T13:00:53.765Z</time>
      </trkpt>
      <trkpt lat="43.67565" lon="4.43735">
        <ele>1.11</ele>
        <time>2024-04-20T13:01:17.539Z</time>
      </trkpt>
      <trkpt lat="43.67547" lon="4.43717">
        <ele>1.16</ele>
        <time>2024-04-20T13:01:40.824Z</time>
      </trkpt>
      <trkpt lat="43.67525" lon="4.43726">
        <ele>1.33</ele>
        <time>2024-04-20T13:02:04.724Z</time>
      </trkpt>
      <trkpt lat="43.67503" lon="4.43714">
        <ele>1.09</ele>
        <time>2024-04-20T13:02:47.720Z</time>
      </trkpt>
      <trkpt lat="43.67485" lon="4.43695">
        <ele>0.7</ele>
        <time>2024-04-20T13:03:10.694Z</time>
      </trkpt>
      <trkpt lat="43.67466" lon="4.43678">
        <ele>0.79</ele>
        <time>2024-04-20T13:03:32.341Z</time>
      </trkpt>
      <trkpt lat="43.67447" lon="4.4366">
        <ele>1.16</ele>
        <time>2024-04-20T13:03:53.820Z</time>
      </trkpt>
      <trkpt lat="43.67428" lon="4.43643">
        <ele>1.28</ele>
        <time>2024-04-20T13:04:14.983Z</time>
      </trkpt>
      <trkpt lat="43.67409" lon="4.43625">
        <ele>0.97</ele>
        <time>2024-04-20T13:04:35.823Z</time>
      </trkpt>
      <trkpt lat="43.6739" lon="4.43609">
        <ele>0.83</ele>
        <time>2024-04-20T13:04:58.421Z</time>
      </trkpt>
      <trkpt lat="43.67371" lon="4.43592">
        <ele>1.09</ele>
        <time>2024-04-20T13:05:19.678Z</time>
      </trkpt>
      <trkpt lat="43.67352" lon="4.43575">
        <ele>1.46</ele>
        <time>2024-04-20T13:05:41.126Z</time>
      </trkpt>
      <trkpt lat="43.67334" lon="4.43555">
        <ele>1.28</ele>
        <time>2024-04-20T13:06:03.503Z</time>
      </trkpt>
      <trkpt lat="43.67315" lon="4.43537">
        <ele>0.94</ele>
        <time>2024-04-20T13:06:32.157Z</time>
      </trkpt>
      <trkpt lat="43.67295" lon="4.43522">
        <ele>1.03</ele>
        <time>2024-04-20T13:06:52.619Z</time>
      </trkpt>
      <trkpt lat="43.67278" lon="4.43543">
        <ele>2.09</ele>
        <time>2024-04-20T13:07:43.224Z</time>
      </trkpt>
      <trkpt lat="43.67287" lon="4.43514">
        <ele>1.11</ele>
        <time>2024-04-20T13:08:52.821Z</time>
      </trkpt>
      <trkpt lat="43.67301" lon="4.43489">
        <ele>0.51</ele>
        <time>2024-04-20T13:09:17.821Z</time>
      </trkpt>
      <trkpt lat="43.67312" lon="4.43462">
        <ele>1.03</ele>
        <time>2024-04-20T13:09:40.179Z</time>
      </trkpt>
      <trkpt lat="43.67326" lon="4.43437">
        <ele>2.32</ele>
        <time>2024-04-20T13:10:02.139Z</time>
      </trkpt>
      <trkpt lat="43.67338" lon="4.4341">
        <ele>3.09</ele>
        <time>2024-04-20T13:10:24.224Z</time>
      </trkpt>
      <trkpt lat="43.67349" lon="4.43383">
        <ele>2.84</ele>
        <time>2024-04-20T13:10:45.741Z</time>
      </trkpt>
      <trkpt lat="43.67364" lon="4.43359">
        <ele>2.43</ele>
        <time>2024-04-20T13:11:11.399Z</time>
      </trkpt>
      <trkpt lat="43.67378" lon="4.43334">
        <ele>2.42</ele>
        <time>2024-04-20T13:11:49.823Z</time>
      </trkpt>
      <trkpt lat="43.67392" lon="4.43309">
        <ele>2.65</ele>
        <time>2024-04-20T13:12:15.319Z</time>
      </trkpt>
      <trkpt lat="43.67403" lon="4.43282">
        <ele>2.77</ele>
        <time>2024-04-20T13:17:41.821Z</time>
      </trkpt>
      <trkpt lat="43.6742" lon="4.43261">
        <ele>3.1</ele>
        <time>2024-04-20T13:18:12.321Z</time>
      </trkpt>
      <trkpt lat="43.67433" lon="4.43236">
        <ele>3.67</ele>
        <time>2024-04-20T13:18:34.821Z</time>
      </trkpt>
      <trkpt lat="43.67448" lon="4.43212">
        <ele>4.31</ele>
        <time>2024-04-20T13:18:59.243Z</time>
      </trkpt>
      <trkpt lat="43.67467" lon="4.43195">
        <ele>4.84</ele>
        <time>2024-04-20T13:19:21.820Z</time>
      </trkpt>
      <trkpt lat="43.67485" lon="4.43176">
        <ele>4.89</ele>
        <time>2024-04-20T13:19:45.561Z</time>
      </trkpt>
      <trkpt lat="43.67503" lon="4.43156">
        <ele>4.76</ele>
        <time>2024-04-20T13:20:07.803Z</time>
      </trkpt>
      <trkpt lat="43.67522" lon="4.43139">
        <ele>4.49</ele>
        <time>2024-04-20T13:20:32.189Z</time>
      </trkpt>
      <trkpt lat="43.67539" lon="4.43119">
        <ele>3.99</ele>
        <time>2024-04-20T13:20:57.081Z</time>
      </trkpt>
      <trkpt lat="43.67558" lon="4.43101">
        <ele>3.64</ele>
        <time>2024-04-20T13:21:26.145Z</time>
      </trkpt>
      <trkpt lat="43.67577" lon="4.43082">
        <ele>3.7</ele>
        <time>2024-04-20T13:21:49.349Z</time>
      </trkpt>
      <trkpt lat="43.67597" lon="4.43066">
        <ele>4.49</ele>
        <time>2024-04-20T13:22:11.782Z</time>
      </trkpt>
      <trkpt lat="43.67615" lon="4.43047">
        <ele>5.17</ele>
        <time>2024-04-20T13:22:41.230Z</time>
      </trkpt>
      <trkpt lat="43.67632" lon="4.43026">
        <ele>5.17</ele>
        <time>2024-04-20T13:23:02.463Z</time>
      </trkpt>
      <trkpt lat="43.67649" lon="4.43006">
        <ele>4.74</ele>
        <time>2024-04-20T13:23:26.820Z</time>
      </trkpt>
      <trkpt lat="43.67669" lon="4.4299">
        <ele>4.78</ele>
        <time>2024-04-20T13:23:51.528Z</time>
      </trkpt>
      <trkpt lat="43.67691" lon="4.42979">
        <ele>5.49</ele>
        <time>2024-04-20T13:24:13.503Z</time>
      </trkpt>
      <trkpt lat="43.67713" lon="4.42972">
        <ele>6.3</ele>
        <time>2024-04-20T13:24:38.789Z</time>
      </trkpt>
      <trkpt lat="43.67735" lon="4.42971">
        <ele>7.24</ele>
        <time>2024-04-20T13:24:59.244Z</time>
      </trkpt>
      <trkpt lat="43.67758" lon="4.42968">
        <ele>7.8</ele>
        <time>2024-04-20T13:25:24.320Z</time>
      </trkpt>
      <trkpt lat="43.67781" lon="4.42965">
        <ele>8.13</ele>
        <time>2024-04-20T13:25:44.160Z</time>
      </trkpt>
      <trkpt lat="43.67804" lon="4.42962">
        <ele>8.32</ele>
        <time>2024-04-20T13:26:06.818Z</time>
      </trkpt>
      <trkpt lat="43.67827" lon="4.42959">
        <ele>8.48</ele>
        <time>2024-04-20T13:26:29.777Z</time>
      </trkpt>
      <trkpt lat="43.6785" lon="4.42957">
        <ele>8.72</ele>
        <time>2024-04-20T13:26:52.866Z</time>
      </trkpt>
      <trkpt lat="43.67872" lon="4.42955">
        <ele>8.98</ele>
        <time>2024-04-20T13:27:15.404Z</time>
      </trkpt>
      <trkpt lat="43.67895" lon="4.42956">
        <ele>9.38</ele>
        <time>2024-04-20T13:27:58.618Z</time>
      </trkpt>
      <trkpt lat="43.67918" lon="4.42958">
        <ele>9.51</ele>
        <time>2024-04-20T13:28:18.181Z</time>
      </trkpt>
      <trkpt lat="43.67941" lon="4.42959">
        <ele>9.01</ele>
        <time>2024-04-20T13:28:38.663Z</time>
      </trkpt>
      <trkpt lat="43.67964" lon="4.4296">
        <ele>8.16</ele>
        <time>2024-04-20T13:29:03.820Z</time>
      </trkpt>
      <trkpt lat="43.67987" lon="4.42963">
        <ele>7.28</ele>
        <time>2024-04-20T13:29:52.765Z</time>
      </trkpt>
      <trkpt lat="43.68009" lon="4.42971">
        <ele>6.87</ele>
        <time>2024-04-20T13:30:12.326Z</time>
      </trkpt>
      <trkpt lat="43.68031" lon="4.42976">
        <ele>6.83</ele>
        <time>2024-04-20T13:30:34.240Z</time>
      </trkpt>
      <trkpt lat="43.68054" lon="4.42977">
        <ele>6.96</ele>
        <time>2024-04-20T13:30:55.463Z</time>
      </trkpt>
      <trkpt lat="43.68077" lon="4.4298">
        <ele>7.18</ele>
        <time>2024-04-20T13:31:19.463Z</time>
      </trkpt>
      <trkpt lat="43.681" lon="4.42985">
        <ele>7.31</ele>
        <time>2024-04-20T13:31:41.818Z</time>
      </trkpt>
      <trkpt lat="43.68122" lon="4.4299">
        <ele>7.48</ele>
        <time>2024-04-20T13:32:03.704Z</time>
      </trkpt>
      <trkpt lat="43.68144" lon="4.42997">
        <ele>7.8</ele>
        <time>2024-04-20T13:32:24.620Z</time>
      </trkpt>
      <trkpt lat="43.68167" lon="4.43002">
        <ele>8.07</ele>
        <time>2024-04-20T13:32:47.782Z</time>
      </trkpt>
      <trkpt lat="43.68188" lon="4.4301">
        <ele>8.79</ele>
        <time>2024-04-20T13:33:09.818Z</time>
      </trkpt>
      <trkpt lat="43.68166" lon="4.43002">
        <ele>8.07</ele>
        <time>2024-04-20T13:36:38.817Z</time>
      </trkpt>
      <trkpt lat="43.68143" lon="4.42994">
        <ele>7.66</ele>
        <time>2024-04-20T13:36:58.818Z</time>
      </trkpt>
      <trkpt lat="43.68121" lon="4.42989">
        <ele>7.43</ele>
        <time>2024-04-20T13:37:23.818Z</time>
      </trkpt>
      <trkpt lat="43.68098" lon="4.42982">
        <ele>7.24</ele>
        <time>2024-04-20T13:37:43.818Z</time>
      </trkpt>
      <trkpt lat="43.68076" lon="4.42977">
        <ele>7.1</ele>
        <time>2024-04-20T13:38:04.818Z</time>
      </trkpt>
      <trkpt lat="43.68053" lon="4.42973">
        <ele>6.89</ele>
        <time>2024-04-20T13:38:25.044Z</time>
      </trkpt>
      <trkpt lat="43.68031" lon="4.42968">
        <ele>6.75</ele>
        <time>2024-04-20T13:38:45.104Z</time>
      </trkpt>
      <trkpt lat="43.68008" lon="4.42965">
        <ele>6.85</ele>
        <time>2024-04-20T13:39:05.518Z</time>
      </trkpt>
      <trkpt lat="43.67985" lon="4.42959">
        <ele>7.3</ele>
        <time>2024-04-20T13:39:23.816Z</time>
      </trkpt>
      <trkpt lat="43.67963" lon="4.42963">
        <ele>8.28</ele>
        <time>2024-04-20T13:39:44.139Z</time>
      </trkpt>
      <trkpt lat="43.67941" lon="4.42957">
        <ele>8.95</ele>
        <time>2024-04-20T13:40:05.327Z</time>
      </trkpt>
      <trkpt lat="43.67918" lon="4.42954">
        <ele>9.24</ele>
        <time>2024-04-20T13:40:26.179Z</time>
      </trkpt>
      <trkpt lat="43.67895" lon="4.42951">
        <ele>9.02</ele>
        <time>2024-04-20T13:40:45.200Z</time>
      </trkpt>
      <trkpt lat="43.67873" lon="4.42958">
        <ele>9.23</ele>
        <time>2024-04-20T13:41:08.328Z</time>
      </trkpt>
      <trkpt lat="43.67853" lon="4.42944">
        <ele>7.79</ele>
        <time>2024-04-20T13:41:29.758Z</time>
      </trkpt>
      <trkpt lat="43.67831" lon="4.42955">
        <ele>8.24</ele>
        <time>2024-04-20T13:41:50.540Z</time>
      </trkpt>
      <trkpt lat="43.67809" lon="4.42962">
        <ele>8.39</ele>
        <time>2024-04-20T13:42:09.686Z</time>
      </trkpt>
      <trkpt lat="43.67786" lon="4.42965">
        <ele>8.2</ele>
        <time>2024-04-20T13:42:28.564Z</time>
      </trkpt>
      <trkpt lat="43.67763" lon="4.42964">
        <ele>7.64</ele>
        <time>2024-04-20T13:42:49.680Z</time>
      </trkpt>
      <trkpt lat="43.67741" lon="4.42971">
        <ele>7.43</ele>
        <time>2024-04-20T13:43:11.046Z</time>
      </trkpt>
      <trkpt lat="43.67718" lon="4.4297">
        <ele>6.48</ele>
        <time>2024-04-20T13:43:33.739Z</time>
      </trkpt>
      <trkpt lat="43.67695" lon="4.4297">
        <ele>5.5</ele>
        <time>2024-04-20T13:44:11.004Z</time>
      </trkpt>
      <trkpt lat="43.67713" lon="4.42951">
        <ele>5.66</ele>
        <time>2024-04-20T13:45:33.240Z</time>
      </trkpt>
      <trkpt lat="43.67706" lon="4.42921">
        <ele>5.06</ele>
        <time>2024-04-20T13:46:02.726Z</time>
      </trkpt>
      <trkpt lat="43.67701" lon="4.42891">
        <ele>4.89</ele>
        <time>2024-04-20T13:46:25.816Z</time>
      </trkpt>
      <trkpt lat="43.67693" lon="4.42861">
        <ele>5</ele>
        <time>2024-04-20T13:46:45.265Z</time>
      </trkpt>
      <trkpt lat="43.67704" lon="4.42889">
        <ele>4.86</ele>
        <time>2024-04-20T13:51:55.426Z</time>
      </trkpt>
      <trkpt lat="43.6771" lon="4.42919">
        <ele>5.03</ele>
        <time>2024-04-20T13:52:19.664Z</time>
      </trkpt>
      <trkpt lat="43.67714" lon="4.42949">
        <ele>5.65</ele>
        <time>2024-04-20T13:52:42.664Z</time>
      </trkpt>
      <trkpt lat="43.67699" lon="4.42973">
        <ele>5.75</ele>
        <time>2024-04-20T13:53:06.565Z</time>
      </trkpt>
      <trkpt lat="43.67677" lon="4.4298">
        <ele>4.93</ele>
        <time>2024-04-20T13:53:25.314Z</time>
      </trkpt>
      <trkpt lat="43.67657" lon="4.42994">
        <ele>4.54</ele>
        <time>2024-04-20T13:53:45.002Z</time>
      </trkpt>
      <trkpt lat="43.67638" lon="4.43012">
        <ele>4.71</ele>
        <time>2024-04-20T13:54:03.814Z</time>
      </trkpt>
      <trkpt lat="43.67624" lon="4.43036">
        <ele>5.28</ele>
        <time>2024-04-20T13:54:24.282Z</time>
      </trkpt>
      <trkpt lat="43.67602" lon="4.43047">
        <ele>4.55</ele>
        <time>2024-04-20T13:54:48.843Z</time>
      </trkpt>
      <trkpt lat="43.67589" lon="4.43072">
        <ele>4.11</ele>
        <time>2024-04-20T13:55:07.497Z</time>
      </trkpt>
      <trkpt lat="43.67568" lon="4.43086">
        <ele>3.51</ele>
        <time>2024-04-20T13:55:29.564Z</time>
      </trkpt>
      <trkpt lat="43.67551" lon="4.43108">
        <ele>3.75</ele>
        <time>2024-04-20T13:55:52.819Z</time>
      </trkpt>
      <trkpt lat="43.67534" lon="4.43128">
        <ele>4.27</ele>
        <time>2024-04-20T13:56:13.006Z</time>
      </trkpt>
      <trkpt lat="43.67516" lon="4.43147">
        <ele>4.69</ele>
        <time>2024-04-20T13:56:34.199Z</time>
      </trkpt>
      <trkpt lat="43.67496" lon="4.43164">
        <ele>4.83</ele>
        <time>2024-04-20T13:56:58.504Z</time>
      </trkpt>
      <trkpt lat="43.67478" lon="4.43184">
        <ele>4.93</ele>
        <time>2024-04-20T13:57:20.814Z</time>
      </trkpt>
      <trkpt lat="43.67461" lon="4.43204">
        <ele>4.81</ele>
        <time>2024-04-20T13:57:50.525Z</time>
      </trkpt>
      <trkpt lat="43.67443" lon="4.43225">
        <ele>4.17</ele>
        <time>2024-04-20T13:58:13.600Z</time>
      </trkpt>
      <trkpt lat="43.67423" lon="4.43239">
        <ele>3.2</ele>
        <time>2024-04-20T13:58:35.484Z</time>
      </trkpt>
      <trkpt lat="43.67404" lon="4.43257">
        <ele>2.72</ele>
        <time>2024-04-20T13:58:59.814Z</time>
      </trkpt>
    </trkseg>
  </trk>
</gpx>